<?xml version='1.0' encoding='UTF-8'?><gpx version="1.1" creator="JPX - https://github.com/jenetics/jpx" xmlns="http://www.topografix.com/GPX/1/1"><trk><trkseg><trkpt lat="45.7055383" lon="11.2799833"><ele>588.0</ele><time>2026-04-20T12:44:35.876Z</time></trkpt><trkpt lat="45.7055983" lon="11.2800433"><ele>588.0</ele><time>2026-04-20T12:44:36.876Z</time></trkpt><trkpt lat="45.7056683" lon="11.2801083"><ele>588.0</ele><time>2026-04-20T12:44:37.876Z</time></trkpt><trkpt lat="45.7057383" lon="11.28018"><ele>588.0</ele><time>2026-04-20T12:44:38.876Z</time></trkpt><trkpt lat="45.7057917" lon="11.2802433"><ele>588.0</ele><time>2026-04-20T12:44:39.876Z</time></trkpt><trkpt lat="45.70584" lon="11.280315"><ele>588.0</ele><time>2026-04-20T12:44:40.876Z</time></trkpt><trkpt lat="45.7059233" lon="11.2804417"><ele>588.0</ele><time>2026-04-20T12:44:42.876Z</time></trkpt><trkpt lat="45.7059733" lon="11.2805183"><ele>588.0</ele><time>2026-04-20T12:44:43.876Z</time></trkpt><trkpt lat="45.7060233" lon="11.28062"><ele>588.0</ele><time>2026-04-20T12:44:44.876Z</time></trkpt><trkpt lat="45.7060583" lon="11.2807167"><ele>588.0</ele><time>2026-04-20T12:44:45.876Z</time></trkpt><trkpt lat="45.706075" lon="11.2808183"><ele>588.0</ele><time>2026-04-20T12:44:46.876Z</time></trkpt><trkpt lat="45.70609" lon="11.2809233"><ele>588.0</ele><time>2026-04-20T12:44:47.877Z</time></trkpt><trkpt lat="45.7061317" lon="11.2810867"><ele>581.8</ele><time>2026-04-20T12:44:49.876Z</time></trkpt><trkpt lat="45.7061783" lon="11.28115"><ele>575.5999999999999</ele><time>2026-04-20T12:44:51.876Z</time></trkpt><trkpt lat="45.7062" lon="11.28098"><ele>569.4000000000001</ele><time>2026-04-20T12:44:53.876Z</time></trkpt><trkpt lat="45.7062067" lon="11.2808433"><ele>563.2</ele><time>2026-04-20T12:44:54.876Z</time></trkpt><trkpt lat="45.706205" lon="11.2806817"><ele>557.0</ele><time>2026-04-20T12:44:55.876Z</time></trkpt><trkpt lat="45.70619" lon="11.280525"><ele>556.3333333333333</ele><time>2026-04-20T12:44:56.876Z</time></trkpt><trkpt lat="45.706175" lon="11.280405"><ele>555.6666666666666</ele><time>2026-04-20T12:44:57.876Z</time></trkpt><trkpt lat="45.7061417" lon="11.2802867"><ele>555.0</ele><time>2026-04-20T12:44:58.876Z</time></trkpt><trkpt lat="45.7061033" lon="11.280165"><ele>554.3333333333334</ele><time>2026-04-20T12:44:59.876Z</time></trkpt><trkpt lat="45.7060617" lon="11.2800767"><ele>553.6666666666667</ele><time>2026-04-20T12:45:00.876Z</time></trkpt><trkpt lat="45.706035" lon="11.27998"><ele>553.0</ele><time>2026-04-20T12:45:01.877Z</time></trkpt><trkpt lat="45.7060133" lon="11.2798917"><ele>557.8</ele><time>2026-04-20T12:45:02.876Z</time></trkpt><trkpt lat="45.7059867" lon="11.2796867"><ele>562.5999999999999</ele><time>2026-04-20T12:45:04.876Z</time></trkpt><trkpt lat="45.70599" lon="11.27955"><ele>567.4000000000001</ele><time>2026-04-20T12:45:05.876Z</time></trkpt><trkpt lat="45.7059783" lon="11.2794433"><ele>572.2</ele><time>2026-04-20T12:45:06.876Z</time></trkpt><trkpt lat="45.7059833" lon="11.2793333"><ele>577.0</ele><time>2026-04-20T12:45:07.876Z</time></trkpt><trkpt lat="45.706045" lon="11.2792117"><ele>572.3333333333334</ele><time>2026-04-20T12:45:10.876Z</time></trkpt><trkpt lat="45.7061083" lon="11.2791917"><ele>567.6666666666667</ele><time>2026-04-20T12:45:11.876Z</time></trkpt><trkpt lat="45.706205" lon="11.2791783"><ele>563.0</ele><time>2026-04-20T12:45:12.876Z</time></trkpt><trkpt lat="45.70629" lon="11.2791867"><ele>558.3333333333334</ele><time>2026-04-20T12:45:13.876Z</time></trkpt><trkpt lat="45.706365" lon="11.27919"><ele>553.6666666666666</ele><time>2026-04-20T12:45:14.876Z</time></trkpt><trkpt lat="45.7064317" lon="11.2791967"><ele>549.0</ele><time>2026-04-20T12:45:15.876Z</time></trkpt><trkpt lat="45.7065483" lon="11.27913"><ele>549.0</ele><time>2026-04-20T12:45:17.876Z</time></trkpt><trkpt lat="45.70661" lon="11.2790567"><ele>549.0</ele><time>2026-04-20T12:45:18.876Z</time></trkpt><trkpt lat="45.706685" lon="11.2789633"><ele>549.0</ele><time>2026-04-20T12:45:19.876Z</time></trkpt><trkpt lat="45.7067533" lon="11.2788667"><ele>549.0</ele><time>2026-04-20T12:45:20.876Z</time></trkpt><trkpt lat="45.7068167" lon="11.278775"><ele>549.0</ele><time>2026-04-20T12:45:21.876Z</time></trkpt><trkpt lat="45.706875" lon="11.2786933"><ele>549.0</ele><time>2026-04-20T12:45:22.876Z</time></trkpt><trkpt lat="45.7069283" lon="11.27864"><ele>545.8</ele><time>2026-04-20T12:45:23.876Z</time></trkpt><trkpt lat="45.7070183" lon="11.2785767"><ele>542.5999999999999</ele><time>2026-04-20T12:45:25.876Z</time></trkpt><trkpt lat="45.7071383" lon="11.278605"><ele>539.4</ele><time>2026-04-20T12:45:27.876Z</time></trkpt><trkpt lat="45.7072283" lon="11.278635"><ele>536.1999999999999</ele><time>2026-04-20T12:45:28.876Z</time></trkpt><trkpt lat="45.70732" lon="11.278655"><ele>533.0</ele><time>2026-04-20T12:45:29.876Z</time></trkpt><trkpt lat="45.707405" lon="11.2786983"><ele>533.0</ele><time>2026-04-20T12:45:30.876Z</time></trkpt><trkpt lat="45.7074733" lon="11.2787467"><ele>533.0</ele><time>2026-04-20T12:45:31.876Z</time></trkpt><trkpt lat="45.7075367" lon="11.2788"><ele>533.0</ele><time>2026-04-20T12:45:32.876Z</time></trkpt><trkpt lat="45.7075917" lon="11.27889"><ele>533.0</ele><time>2026-04-20T12:45:33.876Z</time></trkpt><trkpt lat="45.7076433" lon="11.2789683"><ele>533.0</ele><time>2026-04-20T12:45:34.876Z</time></trkpt><trkpt lat="45.7076933" lon="11.2790433"><ele>533.0</ele><time>2026-04-20T12:45:35.877Z</time></trkpt><trkpt lat="45.70774" lon="11.279185"><ele>533.0</ele><time>2026-04-20T12:45:37.876Z</time></trkpt><trkpt lat="45.7076817" lon="11.27931"><ele>533.0</ele><time>2026-04-20T12:45:39.877Z</time></trkpt><trkpt lat="45.7076117" lon="11.2794617"><ele>533.0</ele><time>2026-04-20T12:45:41.876Z</time></trkpt><trkpt lat="45.7076" lon="11.279565"><ele>533.0</ele><time>2026-04-20T12:45:42.876Z</time></trkpt><trkpt lat="45.7075983" lon="11.2796717"><ele>533.0</ele><time>2026-04-20T12:45:43.876Z</time></trkpt><trkpt lat="45.7075833" lon="11.2798217"><ele>532.3333333333333</ele><time>2026-04-20T12:45:45.877Z</time></trkpt><trkpt lat="45.7075317" lon="11.2799167"><ele>531.6666666666666</ele><time>2026-04-20T12:45:46.876Z</time></trkpt><trkpt lat="45.7074667" lon="11.2799983"><ele>531.0</ele><time>2026-04-20T12:45:47.876Z</time></trkpt><trkpt lat="45.7073983" lon="11.2800717"><ele>530.3333333333334</ele><time>2026-04-20T12:45:48.876Z</time></trkpt><trkpt lat="45.7073367" lon="11.280135"><ele>529.6666666666667</ele><time>2026-04-20T12:45:49.876Z</time></trkpt><trkpt lat="45.7072683" lon="11.2801717"><ele>529.0</ele><time>2026-04-20T12:45:50.877Z</time></trkpt><trkpt lat="45.70714" lon="11.2801667"><ele>529.0</ele><time>2026-04-20T12:45:52.876Z</time></trkpt><trkpt lat="45.7070417" lon="11.2802233"><ele>529.0</ele><time>2026-04-20T12:45:54.876Z</time></trkpt><trkpt lat="45.7070017" lon="11.2803083"><ele>529.0</ele><time>2026-04-20T12:45:55.876Z</time></trkpt><trkpt lat="45.7069767" lon="11.2804183"><ele>529.0</ele><time>2026-04-20T12:45:56.876Z</time></trkpt><trkpt lat="45.7069817" lon="11.2805417"><ele>529.0</ele><time>2026-04-20T12:45:57.876Z</time></trkpt><trkpt lat="45.7070017" lon="11.2806733"><ele>529.0</ele><time>2026-04-20T12:45:58.876Z</time></trkpt><trkpt lat="45.7070383" lon="11.2808017"><ele>526.6</ele><time>2026-04-20T12:45:59.876Z</time></trkpt><trkpt lat="45.7070817" lon="11.2809"><ele>524.2</ele><time>2026-04-20T12:46:00.876Z</time></trkpt><trkpt lat="45.70713" lon="11.2810317"><ele>521.8000000000001</ele><time>2026-04-20T12:46:01.877Z</time></trkpt><trkpt lat="45.7071883" lon="11.281155"><ele>519.4</ele><time>2026-04-20T12:46:02.876Z</time></trkpt><trkpt lat="45.707255" lon="11.2812733"><ele>517.0</ele><time>2026-04-20T12:46:03.876Z</time></trkpt><trkpt lat="45.7073133" lon="11.281355"><ele>515.4</ele><time>2026-04-20T12:46:04.876Z</time></trkpt><trkpt lat="45.707355" lon="11.281455"><ele>513.8000000000001</ele><time>2026-04-20T12:46:05.877Z</time></trkpt><trkpt lat="45.707405" lon="11.281545"><ele>512.2</ele><time>2026-04-20T12:46:06.876Z</time></trkpt><trkpt lat="45.7074583" lon="11.2816833"><ele>510.6</ele><time>2026-04-20T12:46:08.876Z</time></trkpt><trkpt lat="45.70741" lon="11.2818167"><ele>509.0</ele><time>2026-04-20T12:46:10.876Z</time></trkpt><trkpt lat="45.7073667" lon="11.281905"><ele>508.99999999999994</ele><time>2026-04-20T12:46:11.877Z</time></trkpt><trkpt lat="45.7073117" lon="11.281995"><ele>509.0</ele><time>2026-04-20T12:46:12.876Z</time></trkpt><trkpt lat="45.7072517" lon="11.2820617"><ele>509.0</ele><time>2026-04-20T12:46:13.876Z</time></trkpt><trkpt lat="45.7071833" lon="11.2821233"><ele>509.0</ele><time>2026-04-20T12:46:14.876Z</time></trkpt><trkpt lat="45.7071217" lon="11.2821833"><ele>508.99999999999994</ele><time>2026-04-20T12:46:15.876Z</time></trkpt><trkpt lat="45.7070733" lon="11.282255"><ele>509.0</ele><time>2026-04-20T12:46:16.876Z</time></trkpt><trkpt lat="45.70704" lon="11.2823467"><ele>507.16666666666663</ele><time>2026-04-20T12:46:17.876Z</time></trkpt><trkpt lat="45.7070167" lon="11.2824417"><ele>505.3333333333333</ele><time>2026-04-20T12:46:18.876Z</time></trkpt><trkpt lat="45.7069817" lon="11.2825583"><ele>503.5</ele><time>2026-04-20T12:46:19.876Z</time></trkpt><trkpt lat="45.7069417" lon="11.28267"><ele>501.66666666666663</ele><time>2026-04-20T12:46:20.877Z</time></trkpt><trkpt lat="45.7068967" lon="11.2827833"><ele>499.8333333333333</ele><time>2026-04-20T12:46:21.877Z</time></trkpt><trkpt lat="45.7068467" lon="11.2828917"><ele>498.0</ele><time>2026-04-20T12:46:22.876Z</time></trkpt><trkpt lat="45.7068" lon="11.2829833"><ele>499.0</ele><time>2026-04-20T12:46:23.876Z</time></trkpt><trkpt lat="45.7067633" lon="11.2830867"><ele>499.99999999999994</ele><time>2026-04-20T12:46:24.876Z</time></trkpt><trkpt lat="45.7067267" lon="11.283175"><ele>501.0</ele><time>2026-04-20T12:46:25.876Z</time></trkpt><trkpt lat="45.7066867" lon="11.2832667"><ele>502.0</ele><time>2026-04-20T12:46:26.876Z</time></trkpt><trkpt lat="45.7066483" lon="11.283345"><ele>502.99999999999994</ele><time>2026-04-20T12:46:27.876Z</time></trkpt><trkpt lat="45.706605" lon="11.283425"><ele>504.0</ele><time>2026-04-20T12:46:28.876Z</time></trkpt><trkpt lat="45.706565" lon="11.2835033"><ele>505.0</ele><time>2026-04-20T12:46:29.876Z</time></trkpt><trkpt lat="45.7065233" lon="11.2835767"><ele>505.0</ele><time>2026-04-20T12:46:30.876Z</time></trkpt><trkpt lat="45.7064317" lon="11.283705"><ele>505.0</ele><time>2026-04-20T12:46:32.876Z</time></trkpt><trkpt lat="45.7063933" lon="11.2837833"><ele>505.0</ele><time>2026-04-20T12:46:33.876Z</time></trkpt><trkpt lat="45.7063933" lon="11.2839183"><ele>505.0</ele><time>2026-04-20T12:46:35.877Z</time></trkpt><trkpt lat="45.7065183" lon="11.2838517"><ele>505.0</ele><time>2026-04-20T12:46:36.876Z</time></trkpt><trkpt lat="45.7066233" lon="11.2838517"><ele>505.00000000000006</ele><time>2026-04-20T12:46:37.877Z</time></trkpt><trkpt lat="45.7066983" lon="11.28387"><ele>505.0</ele><time>2026-04-20T12:46:38.876Z</time></trkpt><trkpt lat="45.7067667" lon="11.2838767"><ele>505.0</ele><time>2026-04-20T12:46:39.876Z</time></trkpt><trkpt lat="45.7068333" lon="11.28385"><ele>505.0</ele><time>2026-04-20T12:46:40.876Z</time></trkpt><trkpt lat="45.706915" lon="11.2837917"><ele>505.00000000000006</ele><time>2026-04-20T12:46:42.876Z</time></trkpt><trkpt lat="45.70703" lon="11.2838733"><ele>505.0</ele><time>2026-04-20T12:46:44.876Z</time></trkpt><trkpt lat="45.70712" lon="11.28395"><ele>504.2</ele><time>2026-04-20T12:46:45.876Z</time></trkpt><trkpt lat="45.70721" lon="11.2840333"><ele>503.4</ele><time>2026-04-20T12:46:46.876Z</time></trkpt><trkpt lat="45.7072967" lon="11.2841033"><ele>502.6</ele><time>2026-04-20T12:46:47.876Z</time></trkpt><trkpt lat="45.7073833" lon="11.2841467"><ele>501.8</ele><time>2026-04-20T12:46:48.876Z</time></trkpt><trkpt lat="45.707465" lon="11.2841667"><ele>501.0</ele><time>2026-04-20T12:46:49.876Z</time></trkpt><trkpt lat="45.7075483" lon="11.2841683"><ele>501.0</ele><time>2026-04-20T12:46:50.876Z</time></trkpt><trkpt lat="45.7076367" lon="11.2841667"><ele>501.0</ele><time>2026-04-20T12:46:51.877Z</time></trkpt><trkpt lat="45.7077383" lon="11.284165"><ele>501.0</ele><time>2026-04-20T12:46:52.876Z</time></trkpt><trkpt lat="45.70784" lon="11.2841717"><ele>501.0</ele><time>2026-04-20T12:46:53.876Z</time></trkpt><trkpt lat="45.7079283" lon="11.2841717"><ele>501.0</ele><time>2026-04-20T12:46:54.876Z</time></trkpt><trkpt lat="45.7079983" lon="11.2841817"><ele>501.1666666666667</ele><time>2026-04-20T12:46:55.876Z</time></trkpt><trkpt lat="45.70807" lon="11.2842017"><ele>501.33333333333337</ele><time>2026-04-20T12:46:56.876Z</time></trkpt><trkpt lat="45.708145" lon="11.28424"><ele>501.5</ele><time>2026-04-20T12:46:57.876Z</time></trkpt><trkpt lat="45.70822" lon="11.284275"><ele>501.6666666666667</ele><time>2026-04-20T12:46:58.876Z</time></trkpt><trkpt lat="45.7082983" lon="11.2843117"><ele>501.83333333333337</ele><time>2026-04-20T12:46:59.876Z</time></trkpt><trkpt lat="45.708395" lon="11.28432"><ele>502.0</ele><time>2026-04-20T12:47:00.876Z</time></trkpt><trkpt lat="45.70849" lon="11.284305"><ele>501.6</ele><time>2026-04-20T12:47:01.876Z</time></trkpt><trkpt lat="45.708585" lon="11.284265"><ele>501.20000000000005</ele><time>2026-04-20T12:47:02.876Z</time></trkpt><trkpt lat="45.70869" lon="11.28424"><ele>500.8</ele><time>2026-04-20T12:47:03.876Z</time></trkpt><trkpt lat="45.7087867" lon="11.2842417"><ele>500.4</ele><time>2026-04-20T12:47:04.876Z</time></trkpt><trkpt lat="45.7088783" lon="11.2842617"><ele>500.0</ele><time>2026-04-20T12:47:05.876Z</time></trkpt><trkpt lat="45.7089733" lon="11.2843017"><ele>499.99999999999994</ele><time>2026-04-20T12:47:06.876Z</time></trkpt><trkpt lat="45.7090633" lon="11.2843567"><ele>500.0</ele><time>2026-04-20T12:47:07.876Z</time></trkpt><trkpt lat="45.7091467" lon="11.2844133"><ele>500.0</ele><time>2026-04-20T12:47:08.876Z</time></trkpt><trkpt lat="45.70923" lon="11.2844467"><ele>500.0</ele><time>2026-04-20T12:47:09.876Z</time></trkpt><trkpt lat="45.7092967" lon="11.2844817"><ele>499.99999999999994</ele><time>2026-04-20T12:47:10.876Z</time></trkpt><trkpt lat="45.709385" lon="11.2845317"><ele>500.0</ele><time>2026-04-20T12:47:11.876Z</time></trkpt><trkpt lat="45.7094767" lon="11.2845633"><ele>499.49999999999994</ele><time>2026-04-20T12:47:12.876Z</time></trkpt><trkpt lat="45.7095583" lon="11.284585"><ele>499.0</ele><time>2026-04-20T12:47:13.876Z</time></trkpt><trkpt lat="45.70964" lon="11.2845883"><ele>498.5</ele><time>2026-04-20T12:47:14.876Z</time></trkpt><trkpt lat="45.7097167" lon="11.2845733"><ele>498.0</ele><time>2026-04-20T12:47:15.876Z</time></trkpt><trkpt lat="45.7097817" lon="11.2845433"><ele>497.49999999999994</ele><time>2026-04-20T12:47:16.876Z</time></trkpt><trkpt lat="45.7098483" lon="11.2845283"><ele>497.0</ele><time>2026-04-20T12:47:17.876Z</time></trkpt><trkpt lat="45.7099317" lon="11.2845317"><ele>496.99999999999994</ele><time>2026-04-20T12:47:18.876Z</time></trkpt><trkpt lat="45.7100183" lon="11.2845483"><ele>497.0</ele><time>2026-04-20T12:47:19.876Z</time></trkpt><trkpt lat="45.710105" lon="11.28458"><ele>497.0</ele><time>2026-04-20T12:47:20.876Z</time></trkpt><trkpt lat="45.7101633" lon="11.2846183"><ele>497.0</ele><time>2026-04-20T12:47:21.876Z</time></trkpt><trkpt lat="45.7102283" lon="11.284645"><ele>496.99999999999994</ele><time>2026-04-20T12:47:22.876Z</time></trkpt><trkpt lat="45.71036" lon="11.2846433"><ele>497.0</ele><time>2026-04-20T12:47:24.876Z</time></trkpt><trkpt lat="45.7104483" lon="11.2846233"><ele>497.8</ele><time>2026-04-20T12:47:26.876Z</time></trkpt><trkpt lat="45.71052" lon="11.2846167"><ele>498.6</ele><time>2026-04-20T12:47:36.876Z</time></trkpt><trkpt lat="45.7105783" lon="11.28468"><ele>499.40000000000003</ele><time>2026-04-20T12:47:38.876Z</time></trkpt><trkpt lat="45.71065" lon="11.28477"><ele>500.20000000000005</ele><time>2026-04-20T12:47:40.876Z</time></trkpt><trkpt lat="45.71082" lon="11.2849267"><ele>501.0</ele><time>2026-04-20T12:47:44.876Z</time></trkpt><trkpt lat="45.7109617" lon="11.2849667"><ele>503.75</ele><time>2026-04-20T12:47:47.876Z</time></trkpt><trkpt lat="45.7109767" lon="11.2852517"><ele>506.5</ele><time>2026-04-20T12:47:52.876Z</time></trkpt><trkpt lat="45.7109667" lon="11.285405"><ele>509.25</ele><time>2026-04-20T12:47:53.876Z</time></trkpt><trkpt lat="45.7109617" lon="11.28555"><ele>512.0</ele><time>2026-04-20T12:47:54.876Z</time></trkpt><trkpt lat="45.7109483" lon="11.2856917"><ele>513.75</ele><time>2026-04-20T12:47:55.876Z</time></trkpt><trkpt lat="45.7109183" lon="11.2858383"><ele>515.5</ele><time>2026-04-20T12:47:56.876Z</time></trkpt><trkpt lat="45.7108717" lon="11.2859967"><ele>517.25</ele><time>2026-04-20T12:47:57.877Z</time></trkpt><trkpt lat="45.7108267" lon="11.286165"><ele>519.0</ele><time>2026-04-20T12:47:58.876Z</time></trkpt><trkpt lat="45.71079" lon="11.2863117"><ele>519.0</ele><time>2026-04-20T12:47:59.876Z</time></trkpt><trkpt lat="45.7107667" lon="11.2864217"><ele>519.0</ele><time>2026-04-20T12:48:00.876Z</time></trkpt><trkpt lat="45.71077" lon="11.286525"><ele>519.0</ele><time>2026-04-20T12:48:01.876Z</time></trkpt><trkpt lat="45.7107967" lon="11.2866267"><ele>519.0</ele><time>2026-04-20T12:48:02.876Z</time></trkpt><trkpt lat="45.71085" lon="11.2867217"><ele>519.0</ele><time>2026-04-20T12:48:03.876Z</time></trkpt><trkpt lat="45.710935" lon="11.2868083"><ele>519.0</ele><time>2026-04-20T12:48:04.876Z</time></trkpt><trkpt lat="45.7110517" lon="11.2868867"><ele>520.25</ele><time>2026-04-20T12:48:05.876Z</time></trkpt><trkpt lat="45.7111733" lon="11.2869683"><ele>521.5</ele><time>2026-04-20T12:48:06.876Z</time></trkpt><trkpt lat="45.7112883" lon="11.2870517"><ele>522.75</ele><time>2026-04-20T12:48:07.876Z</time></trkpt><trkpt lat="45.711395" lon="11.287145"><ele>524.0</ele><time>2026-04-20T12:48:08.876Z</time></trkpt><trkpt lat="45.711495" lon="11.2872517"><ele>527.8333333333333</ele><time>2026-04-20T12:48:09.876Z</time></trkpt><trkpt lat="45.7115783" lon="11.2873483"><ele>531.6666666666666</ele><time>2026-04-20T12:48:10.876Z</time></trkpt><trkpt lat="45.711655" lon="11.2874267"><ele>535.5</ele><time>2026-04-20T12:48:11.876Z</time></trkpt><trkpt lat="45.7117217" lon="11.2874933"><ele>539.3333333333334</ele><time>2026-04-20T12:48:12.876Z</time></trkpt><trkpt lat="45.7117867" lon="11.2875617"><ele>543.1666666666667</ele><time>2026-04-20T12:48:13.877Z</time></trkpt><trkpt lat="45.711835" lon="11.2876367"><ele>547.0</ele><time>2026-04-20T12:48:14.876Z</time></trkpt><trkpt lat="45.7118883" lon="11.2877067"><ele>546.3333333333334</ele><time>2026-04-20T12:48:15.876Z</time></trkpt><trkpt lat="45.7119517" lon="11.287755"><ele>545.6666666666667</ele><time>2026-04-20T12:48:16.876Z</time></trkpt><trkpt lat="45.712065" lon="11.287785"><ele>545.0</ele><time>2026-04-20T12:48:18.876Z</time></trkpt><trkpt lat="45.7121333" lon="11.2877917"><ele>544.3333333333334</ele><time>2026-04-20T12:48:19.876Z</time></trkpt><trkpt lat="45.7122117" lon="11.28781"><ele>543.6666666666666</ele><time>2026-04-20T12:48:20.876Z</time></trkpt><trkpt lat="45.7122867" lon="11.287845"><ele>543.0</ele><time>2026-04-20T12:48:21.876Z</time></trkpt><trkpt lat="45.7123767" lon="11.2878917"><ele>543.0</ele><time>2026-04-20T12:48:22.876Z</time></trkpt><trkpt lat="45.712475" lon="11.28795"><ele>543.0</ele><time>2026-04-20T12:48:23.876Z</time></trkpt><trkpt lat="45.7125667" lon="11.2880317"><ele>543.0</ele><time>2026-04-20T12:48:24.877Z</time></trkpt><trkpt lat="45.7126633" lon="11.28812"><ele>543.0</ele><time>2026-04-20T12:48:25.876Z</time></trkpt><trkpt lat="45.7127467" lon="11.2882"><ele>543.0</ele><time>2026-04-20T12:48:26.876Z</time></trkpt><trkpt lat="45.7128133" lon="11.2882683"><ele>541.0</ele><time>2026-04-20T12:48:27.876Z</time></trkpt><trkpt lat="45.7128567" lon="11.288335"><ele>539.0</ele><time>2026-04-20T12:48:28.876Z</time></trkpt><trkpt lat="45.712865" lon="11.2884767"><ele>537.0</ele><time>2026-04-20T12:48:30.876Z</time></trkpt><trkpt lat="45.7128217" lon="11.2885633"><ele>535.0</ele><time>2026-04-20T12:48:31.876Z</time></trkpt><trkpt lat="45.7127833" lon="11.288665"><ele>533.0</ele><time>2026-04-20T12:48:32.876Z</time></trkpt><trkpt lat="45.712755" lon="11.2887767"><ele>531.0</ele><time>2026-04-20T12:48:33.876Z</time></trkpt><trkpt lat="45.71273" lon="11.2888933"><ele>545.25</ele><time>2026-04-20T12:48:34.876Z</time></trkpt><trkpt lat="45.7127267" lon="11.2890333"><ele>559.5</ele><time>2026-04-20T12:48:35.876Z</time></trkpt><trkpt lat="45.7127333" lon="11.2891933"><ele>573.75</ele><time>2026-04-20T12:48:36.877Z</time></trkpt><trkpt lat="45.7127283" lon="11.289375"><ele>588.0</ele><time>2026-04-20T12:48:37.876Z</time></trkpt><trkpt lat="45.71272" lon="11.2895433"><ele>588.0</ele><time>2026-04-20T12:48:38.876Z</time></trkpt><trkpt lat="45.7127183" lon="11.2897"><ele>588.0</ele><time>2026-04-20T12:48:39.876Z</time></trkpt><trkpt lat="45.7127183" lon="11.2898517"><ele>588.0</ele><time>2026-04-20T12:48:40.876Z</time></trkpt><trkpt lat="45.7127317" lon="11.2899833"><ele>588.0</ele><time>2026-04-20T12:48:41.876Z</time></trkpt><trkpt lat="45.7127417" lon="11.29011"><ele>588.0</ele><time>2026-04-20T12:48:42.876Z</time></trkpt><trkpt lat="45.712745" lon="11.29024"><ele>587.0</ele><time>2026-04-20T12:48:43.875Z</time></trkpt><trkpt lat="45.7127383" lon="11.2903633"><ele>586.0</ele><time>2026-04-20T12:48:44.875Z</time></trkpt><trkpt lat="45.712715" lon="11.29049"><ele>585.0</ele><time>2026-04-20T12:48:45.875Z</time></trkpt><trkpt lat="45.7126917" lon="11.290615"><ele>584.0</ele><time>2026-04-20T12:48:46.876Z</time></trkpt><trkpt lat="45.7126683" lon="11.290745"><ele>583.0</ele><time>2026-04-20T12:48:47.875Z</time></trkpt><trkpt lat="45.7126417" lon="11.2908767"><ele>581.6666666666667</ele><time>2026-04-20T12:48:48.875Z</time></trkpt><trkpt lat="45.712625" lon="11.2910083"><ele>580.3333333333334</ele><time>2026-04-20T12:48:49.875Z</time></trkpt><trkpt lat="45.7126167" lon="11.2911383"><ele>579.0</ele><time>2026-04-20T12:48:50.875Z</time></trkpt><trkpt lat="45.7126083" lon="11.2912433"><ele>577.6666666666666</ele><time>2026-04-20T12:48:51.875Z</time></trkpt><trkpt lat="45.71261" lon="11.2913517"><ele>576.3333333333333</ele><time>2026-04-20T12:48:52.875Z</time></trkpt><trkpt lat="45.7126133" lon="11.2914733"><ele>575.0</ele><time>2026-04-20T12:48:53.876Z</time></trkpt><trkpt lat="45.712635" lon="11.2916133"><ele>575.0</ele><time>2026-04-20T12:48:54.875Z</time></trkpt><trkpt lat="45.7126833" lon="11.2917333"><ele>575.0</ele><time>2026-04-20T12:48:55.875Z</time></trkpt><trkpt lat="45.7126967" lon="11.291895"><ele>575.0</ele><time>2026-04-20T12:48:56.875Z</time></trkpt><trkpt lat="45.7127283" lon="11.2920117"><ele>575.0</ele><time>2026-04-20T12:48:57.876Z</time></trkpt><trkpt lat="45.7127533" lon="11.2921117"><ele>575.0</ele><time>2026-04-20T12:48:58.875Z</time></trkpt><trkpt lat="45.712765" lon="11.2922083"><ele>575.0</ele><time>2026-04-20T12:48:59.875Z</time></trkpt><trkpt lat="45.71274" lon="11.2922967"><ele>573.6</ele><time>2026-04-20T12:49:00.875Z</time></trkpt><trkpt lat="45.7127083" lon="11.29239"><ele>572.2</ele><time>2026-04-20T12:49:01.875Z</time></trkpt><trkpt lat="45.7126983" lon="11.2924867"><ele>570.8</ele><time>2026-04-20T12:49:02.875Z</time></trkpt><trkpt lat="45.712745" lon="11.2926783"><ele>569.4</ele><time>2026-04-20T12:49:04.875Z</time></trkpt><trkpt lat="45.7128" lon="11.2927917"><ele>568.0</ele><time>2026-04-20T12:49:05.875Z</time></trkpt><trkpt lat="45.7128417" lon="11.2928933"><ele>559.8</ele><time>2026-04-20T12:49:06.875Z</time></trkpt><trkpt lat="45.7128617" lon="11.2929983"><ele>551.5999999999999</ele><time>2026-04-20T12:49:07.875Z</time></trkpt><trkpt lat="45.71289" lon="11.2931417"><ele>543.4000000000001</ele><time>2026-04-20T12:49:08.875Z</time></trkpt><trkpt lat="45.712925" lon="11.2932983"><ele>535.2</ele><time>2026-04-20T12:49:09.875Z</time></trkpt><trkpt lat="45.712975" lon="11.2934517"><ele>527.0</ele><time>2026-04-20T12:49:10.875Z</time></trkpt><trkpt lat="45.713025" lon="11.293595"><ele>527.0</ele><time>2026-04-20T12:49:11.875Z</time></trkpt><trkpt lat="45.713075" lon="11.2937267"><ele>527.0</ele><time>2026-04-20T12:49:12.875Z</time></trkpt><trkpt lat="45.7131217" lon="11.2938483"><ele>527.0</ele><time>2026-04-20T12:49:13.875Z</time></trkpt><trkpt lat="45.71315" lon="11.2939567"><ele>527.0</ele><time>2026-04-20T12:49:14.875Z</time></trkpt><trkpt lat="45.713145" lon="11.2941183"><ele>527.0</ele><time>2026-04-20T12:49:16.875Z</time></trkpt><trkpt lat="45.713105" lon="11.2942067"><ele>527.4</ele><time>2026-04-20T12:49:17.875Z</time></trkpt><trkpt lat="45.7130483" lon="11.29431"><ele>527.8000000000001</ele><time>2026-04-20T12:49:18.875Z</time></trkpt><trkpt lat="45.7129783" lon="11.2944183"><ele>528.2</ele><time>2026-04-20T12:49:19.876Z</time></trkpt><trkpt lat="45.7129083" lon="11.294535"><ele>528.6</ele><time>2026-04-20T12:49:20.875Z</time></trkpt><trkpt lat="45.71284" lon="11.2946433"><ele>529.0</ele><time>2026-04-20T12:49:21.875Z</time></trkpt><trkpt lat="45.7127867" lon="11.29475"><ele>525.4</ele><time>2026-04-20T12:49:22.875Z</time></trkpt><trkpt lat="45.7127567" lon="11.2948617"><ele>521.8</ele><time>2026-04-20T12:49:23.876Z</time></trkpt><trkpt lat="45.71272" lon="11.2949767"><ele>518.2</ele><time>2026-04-20T12:49:24.875Z</time></trkpt><trkpt lat="45.71269" lon="11.2951"><ele>514.6</ele><time>2026-04-20T12:49:25.875Z</time></trkpt><trkpt lat="45.7126917" lon="11.295235"><ele>511.0</ele><time>2026-04-20T12:49:26.875Z</time></trkpt><trkpt lat="45.71269" lon="11.2954017"><ele>508.0</ele><time>2026-04-20T12:49:27.875Z</time></trkpt><trkpt lat="45.7126983" lon="11.29556"><ele>505.0</ele><time>2026-04-20T12:49:28.875Z</time></trkpt><trkpt lat="45.7127117" lon="11.2956983"><ele>502.0</ele><time>2026-04-20T12:49:29.875Z</time></trkpt><trkpt lat="45.7127233" lon="11.2958383"><ele>499.0</ele><time>2026-04-20T12:49:30.875Z</time></trkpt><trkpt lat="45.712735" lon="11.295985"><ele>496.0</ele><time>2026-04-20T12:49:31.875Z</time></trkpt><trkpt lat="45.712745" lon="11.2961333"><ele>496.0</ele><time>2026-04-20T12:49:32.875Z</time></trkpt><trkpt lat="45.7127633" lon="11.29628"><ele>496.0</ele><time>2026-04-20T12:49:33.876Z</time></trkpt><trkpt lat="45.71279" lon="11.29643"><ele>496.0</ele><time>2026-04-20T12:49:34.875Z</time></trkpt><trkpt lat="45.7128217" lon="11.2965683"><ele>496.0</ele><time>2026-04-20T12:49:35.875Z</time></trkpt><trkpt lat="45.7128467" lon="11.296665"><ele>496.0</ele><time>2026-04-20T12:49:36.875Z</time></trkpt><trkpt lat="45.71282" lon="11.2968067"><ele>495.4</ele><time>2026-04-20T12:49:38.875Z</time></trkpt><trkpt lat="45.7127467" lon="11.2968867"><ele>494.8</ele><time>2026-04-20T12:49:41.875Z</time></trkpt><trkpt lat="45.7126583" lon="11.296915"><ele>494.19999999999993</ele><time>2026-04-20T12:49:43.875Z</time></trkpt><trkpt lat="45.7125783" lon="11.2969367"><ele>493.59999999999997</ele><time>2026-04-20T12:49:44.875Z</time></trkpt><trkpt lat="45.71248" lon="11.296975"><ele>493.0</ele><time>2026-04-20T12:49:45.875Z</time></trkpt><trkpt lat="45.7123817" lon="11.2970333"><ele>500.59999999999997</ele><time>2026-04-20T12:49:46.875Z</time></trkpt><trkpt lat="45.71229" lon="11.297095"><ele>508.19999999999993</ele><time>2026-04-20T12:49:47.875Z</time></trkpt><trkpt lat="45.71218" lon="11.2971467"><ele>515.8</ele><time>2026-04-20T12:49:48.875Z</time></trkpt><trkpt lat="45.712095" lon="11.297185"><ele>523.4</ele><time>2026-04-20T12:49:49.875Z</time></trkpt><trkpt lat="45.7120033" lon="11.29721"><ele>531.0</ele><time>2026-04-20T12:49:50.875Z</time></trkpt><trkpt lat="45.7119267" lon="11.29725"><ele>529.8333333333334</ele><time>2026-04-20T12:49:51.875Z</time></trkpt><trkpt lat="45.7118667" lon="11.297285"><ele>528.6666666666666</ele><time>2026-04-20T12:49:52.875Z</time></trkpt><trkpt lat="45.711795" lon="11.2973267"><ele>527.5</ele><time>2026-04-20T12:49:53.875Z</time></trkpt><trkpt lat="45.7117167" lon="11.2973667"><ele>526.3333333333333</ele><time>2026-04-20T12:49:54.875Z</time></trkpt><trkpt lat="45.711625" lon="11.29738"><ele>525.1666666666666</ele><time>2026-04-20T12:49:55.875Z</time></trkpt><trkpt lat="45.71152" lon="11.2973633"><ele>524.0</ele><time>2026-04-20T12:49:56.875Z</time></trkpt><trkpt lat="45.711415" lon="11.2973283"><ele>524.0</ele><time>2026-04-20T12:49:57.875Z</time></trkpt><trkpt lat="45.71132" lon="11.297305"><ele>524.0</ele><time>2026-04-20T12:49:58.875Z</time></trkpt><trkpt lat="45.7112117" lon="11.2973"><ele>524.0</ele><time>2026-04-20T12:49:59.875Z</time></trkpt><trkpt lat="45.7111133" lon="11.29728"><ele>524.0</ele><time>2026-04-20T12:50:00.875Z</time></trkpt><trkpt lat="45.711045" lon="11.2972433"><ele>524.0</ele><time>2026-04-20T12:50:01.875Z</time></trkpt><trkpt lat="45.7109733" lon="11.2972"><ele>525.6666666666666</ele><time>2026-04-20T12:50:02.875Z</time></trkpt><trkpt lat="45.7109117" lon="11.297165"><ele>527.3333333333333</ele><time>2026-04-20T12:50:03.875Z</time></trkpt><trkpt lat="45.7108417" lon="11.2971467"><ele>529.0</ele><time>2026-04-20T12:50:04.876Z</time></trkpt><trkpt lat="45.7107683" lon="11.2971567"><ele>530.6666666666666</ele><time>2026-04-20T12:50:05.875Z</time></trkpt><trkpt lat="45.7106933" lon="11.29719"><ele>532.3333333333334</ele><time>2026-04-20T12:50:06.876Z</time></trkpt><trkpt lat="45.710605" lon="11.2971833"><ele>534.0</ele><time>2026-04-20T12:50:07.875Z</time></trkpt><trkpt lat="45.7105117" lon="11.29714"><ele>534.0</ele><time>2026-04-20T12:50:08.875Z</time></trkpt><trkpt lat="45.7104183" lon="11.2970867"><ele>534.0</ele><time>2026-04-20T12:50:09.875Z</time></trkpt><trkpt lat="45.7103367" lon="11.29704"><ele>534.0</ele><time>2026-04-20T12:50:10.875Z</time></trkpt><trkpt lat="45.710255" lon="11.2969967"><ele>534.0</ele><time>2026-04-20T12:50:11.875Z</time></trkpt><trkpt lat="45.7101717" lon="11.2969667"><ele>534.0</ele><time>2026-04-20T12:50:12.875Z</time></trkpt><trkpt lat="45.71008" lon="11.2969583"><ele>533.8</ele><time>2026-04-20T12:50:13.875Z</time></trkpt><trkpt lat="45.7099867" lon="11.2969867"><ele>533.5999999999999</ele><time>2026-04-20T12:50:14.875Z</time></trkpt><trkpt lat="45.7098933" lon="11.29703"><ele>533.4</ele><time>2026-04-20T12:50:15.875Z</time></trkpt><trkpt lat="45.7098067" lon="11.29708"><ele>533.1999999999999</ele><time>2026-04-20T12:50:16.875Z</time></trkpt><trkpt lat="45.70972" lon="11.297125"><ele>533.0</ele><time>2026-04-20T12:50:17.875Z</time></trkpt><trkpt lat="45.7096317" lon="11.29717"><ele>533.0</ele><time>2026-04-20T12:50:18.875Z</time></trkpt><trkpt lat="45.70955" lon="11.2972283"><ele>533.0</ele><time>2026-04-20T12:50:19.875Z</time></trkpt><trkpt lat="45.7094883" lon="11.29729"><ele>533.0</ele><time>2026-04-20T12:50:20.875Z</time></trkpt><trkpt lat="45.7094217" lon="11.2973433"><ele>533.0</ele><time>2026-04-20T12:50:21.875Z</time></trkpt><trkpt lat="45.70935" lon="11.2973783"><ele>533.0</ele><time>2026-04-20T12:50:22.875Z</time></trkpt><trkpt lat="45.709275" lon="11.2973567"><ele>533.0</ele><time>2026-04-20T12:50:23.875Z</time></trkpt><trkpt lat="45.7092033" lon="11.2972783"><ele>533.5</ele><time>2026-04-20T12:50:24.875Z</time></trkpt><trkpt lat="45.7091183" lon="11.2972183"><ele>534.0</ele><time>2026-04-20T12:50:25.875Z</time></trkpt><trkpt lat="45.70901" lon="11.2971867"><ele>534.5</ele><time>2026-04-20T12:50:26.875Z</time></trkpt><trkpt lat="45.7088783" lon="11.2972133"><ele>535.0</ele><time>2026-04-20T12:50:27.875Z</time></trkpt><trkpt lat="45.708735" lon="11.2972517"><ele>526.75</ele><time>2026-04-20T12:50:28.875Z</time></trkpt><trkpt lat="45.7086017" lon="11.2972667"><ele>518.5</ele><time>2026-04-20T12:50:29.875Z</time></trkpt><trkpt lat="45.708485" lon="11.2972933"><ele>510.25</ele><time>2026-04-20T12:50:30.875Z</time></trkpt><trkpt lat="45.708365" lon="11.2973133"><ele>502.0</ele><time>2026-04-20T12:50:31.875Z</time></trkpt><trkpt lat="45.7082333" lon="11.2973467"><ele>499.75</ele><time>2026-04-20T12:50:32.875Z</time></trkpt><trkpt lat="45.7081033" lon="11.2974033"><ele>497.5</ele><time>2026-04-20T12:50:33.875Z</time></trkpt><trkpt lat="45.7079933" lon="11.2974783"><ele>495.25</ele><time>2026-04-20T12:50:34.875Z</time></trkpt><trkpt lat="45.707885" lon="11.2975533"><ele>493.0</ele><time>2026-04-20T12:50:35.875Z</time></trkpt><trkpt lat="45.7077733" lon="11.297625"><ele>494.5</ele><time>2026-04-20T12:50:36.875Z</time></trkpt><trkpt lat="45.707665" lon="11.297695"><ele>496.0</ele><time>2026-04-20T12:50:37.875Z</time></trkpt><trkpt lat="45.7075567" lon="11.297765"><ele>497.5</ele><time>2026-04-20T12:50:38.875Z</time></trkpt><trkpt lat="45.70744" lon="11.2978167"><ele>499.0</ele><time>2026-04-20T12:50:39.875Z</time></trkpt><trkpt lat="45.7073383" lon="11.297855"><ele>499.0</ele><time>2026-04-20T12:50:40.875Z</time></trkpt><trkpt lat="45.7072367" lon="11.2978517"><ele>499.0</ele><time>2026-04-20T12:50:41.875Z</time></trkpt><trkpt lat="45.7071417" lon="11.2978167"><ele>499.0</ele><time>2026-04-20T12:50:42.875Z</time></trkpt><trkpt lat="45.707055" lon="11.2977817"><ele>499.0</ele><time>2026-04-20T12:50:43.875Z</time></trkpt><trkpt lat="45.7069617" lon="11.2977367"><ele>499.0</ele><time>2026-04-20T12:50:44.876Z</time></trkpt><trkpt lat="45.7068717" lon="11.2977217"><ele>500.0</ele><time>2026-04-20T12:50:45.875Z</time></trkpt><trkpt lat="45.706795" lon="11.29774"><ele>501.0</ele><time>2026-04-20T12:50:46.875Z</time></trkpt><trkpt lat="45.7067067" lon="11.2978633"><ele>502.0</ele><time>2026-04-20T12:50:48.875Z</time></trkpt><trkpt lat="45.7067317" lon="11.298005"><ele>503.0</ele><time>2026-04-20T12:50:50.875Z</time></trkpt><trkpt lat="45.7068067" lon="11.2980667"><ele>504.0</ele><time>2026-04-20T12:50:51.875Z</time></trkpt><trkpt lat="45.7068983" lon="11.2981333"><ele>497.4</ele><time>2026-04-20T12:50:52.875Z</time></trkpt><trkpt lat="45.7069833" lon="11.2982017"><ele>490.79999999999995</ele><time>2026-04-20T12:50:53.875Z</time></trkpt><trkpt lat="45.7070583" lon="11.2982817"><ele>484.20000000000005</ele><time>2026-04-20T12:50:54.875Z</time></trkpt><trkpt lat="45.70714" lon="11.2983683"><ele>477.6</ele><time>2026-04-20T12:50:55.875Z</time></trkpt><trkpt lat="45.7072067" lon="11.298435"><ele>471.0</ele><time>2026-04-20T12:50:56.875Z</time></trkpt><trkpt lat="45.7072667" lon="11.2985483"><ele>471.0</ele><time>2026-04-20T12:50:58.875Z</time></trkpt><trkpt lat="45.7071383" lon="11.29856"><ele>471.0</ele><time>2026-04-20T12:51:07.875Z</time></trkpt><trkpt lat="45.7069933" lon="11.2984833"><ele>471.0</ele><time>2026-04-20T12:51:26.875Z</time></trkpt><trkpt lat="45.7069017" lon="11.2984183"><ele>471.0</ele><time>2026-04-20T12:51:28.875Z</time></trkpt><trkpt lat="45.706825" lon="11.29835"><ele>471.6</ele><time>2026-04-20T12:51:30.875Z</time></trkpt><trkpt lat="45.7067467" lon="11.2982667"><ele>472.20000000000005</ele><time>2026-04-20T12:51:32.875Z</time></trkpt><trkpt lat="45.706655" lon="11.2982367"><ele>472.79999999999995</ele><time>2026-04-20T12:51:34.875Z</time></trkpt><trkpt lat="45.706535" lon="11.2983033"><ele>473.4</ele><time>2026-04-20T12:51:36.875Z</time></trkpt><trkpt lat="45.7064617" lon="11.298385"><ele>474.0</ele><time>2026-04-20T12:51:37.876Z</time></trkpt><trkpt lat="45.7063917" lon="11.29847"><ele>474.0</ele><time>2026-04-20T12:51:38.875Z</time></trkpt><trkpt lat="45.7063317" lon="11.2985367"><ele>474.0</ele><time>2026-04-20T12:51:39.875Z</time></trkpt><trkpt lat="45.70628" lon="11.298595"><ele>474.0</ele><time>2026-04-20T12:51:40.875Z</time></trkpt><trkpt lat="45.7062283" lon="11.2986483"><ele>474.0</ele><time>2026-04-20T12:51:41.875Z</time></trkpt><trkpt lat="45.706165" lon="11.2986967"><ele>474.0</ele><time>2026-04-20T12:51:42.875Z</time></trkpt><trkpt lat="45.7060817" lon="11.2987383"><ele>474.0</ele><time>2026-04-20T12:51:43.875Z</time></trkpt><trkpt lat="45.7059833" lon="11.2987833"><ele>471.5</ele><time>2026-04-20T12:51:44.875Z</time></trkpt><trkpt lat="45.7059017" lon="11.2988233"><ele>469.0</ele><time>2026-04-20T12:51:45.875Z</time></trkpt><trkpt lat="45.7058233" lon="11.2988717"><ele>466.5</ele><time>2026-04-20T12:51:46.875Z</time></trkpt><trkpt lat="45.7057517" lon="11.29891"><ele>464.0</ele><time>2026-04-20T12:51:47.875Z</time></trkpt><trkpt lat="45.7056833" lon="11.29896"><ele>461.5</ele><time>2026-04-20T12:51:48.876Z</time></trkpt><trkpt lat="45.705615" lon="11.29901"><ele>459.0</ele><time>2026-04-20T12:51:49.875Z</time></trkpt><trkpt lat="45.705545" lon="11.299055"><ele>459.0</ele><time>2026-04-20T12:51:50.875Z</time></trkpt><trkpt lat="45.7054667" lon="11.2990717"><ele>459.0</ele><time>2026-04-20T12:51:51.875Z</time></trkpt><trkpt lat="45.7053867" lon="11.299085"><ele>459.0</ele><time>2026-04-20T12:51:52.875Z</time></trkpt><trkpt lat="45.705305" lon="11.2991017"><ele>459.0</ele><time>2026-04-20T12:51:53.875Z</time></trkpt><trkpt lat="45.7052133" lon="11.29912"><ele>459.0</ele><time>2026-04-20T12:51:54.875Z</time></trkpt><trkpt lat="45.7051167" lon="11.2991367"><ele>459.0</ele><time>2026-04-20T12:51:55.875Z</time></trkpt><trkpt lat="45.70502" lon="11.2991717"><ele>462.79999999999995</ele><time>2026-04-20T12:51:56.875Z</time></trkpt><trkpt lat="45.70492" lon="11.2992083"><ele>466.59999999999997</ele><time>2026-04-20T12:51:57.875Z</time></trkpt><trkpt lat="45.7048167" lon="11.299245"><ele>470.4</ele><time>2026-04-20T12:51:58.875Z</time></trkpt><trkpt lat="45.704715" lon="11.2992767"><ele>474.2</ele><time>2026-04-20T12:51:59.875Z</time></trkpt><trkpt lat="45.70461" lon="11.29931"><ele>478.0</ele><time>2026-04-20T12:52:00.875Z</time></trkpt><trkpt lat="45.7044917" lon="11.29934"><ele>478.0</ele><time>2026-04-20T12:52:01.875Z</time></trkpt><trkpt lat="45.704365" lon="11.2993533"><ele>477.99999999999994</ele><time>2026-04-20T12:52:02.876Z</time></trkpt><trkpt lat="45.7042483" lon="11.2993717"><ele>477.99999999999994</ele><time>2026-04-20T12:52:03.875Z</time></trkpt><trkpt lat="45.7041517" lon="11.2993867"><ele>478.0</ele><time>2026-04-20T12:52:04.875Z</time></trkpt><trkpt lat="45.7040633" lon="11.29939"><ele>478.0</ele><time>2026-04-20T12:52:05.875Z</time></trkpt><trkpt lat="45.703995" lon="11.29939"><ele>478.0</ele><time>2026-04-20T12:52:06.875Z</time></trkpt><trkpt lat="45.7039267" lon="11.2993917"><ele>477.99999999999994</ele><time>2026-04-20T12:52:07.875Z</time></trkpt><trkpt lat="45.703805" lon="11.2993983"><ele>477.99999999999994</ele><time>2026-04-20T12:52:09.875Z</time></trkpt><trkpt lat="45.7036883" lon="11.299355"><ele>478.0</ele><time>2026-04-20T12:52:11.875Z</time></trkpt><trkpt lat="45.703615" lon="11.2993417"><ele>478.0</ele><time>2026-04-20T12:52:12.875Z</time></trkpt><trkpt lat="45.703545" lon="11.299325"><ele>473.5</ele><time>2026-04-20T12:52:13.875Z</time></trkpt><trkpt lat="45.7034467" lon="11.29929"><ele>469.0</ele><time>2026-04-20T12:52:15.875Z</time></trkpt><trkpt lat="45.7033" lon="11.299155"><ele>464.5</ele><time>2026-04-20T12:52:19.875Z</time></trkpt><trkpt lat="45.7032633" lon="11.29908"><ele>460.0</ele><time>2026-04-20T12:52:27.875Z</time></trkpt><trkpt lat="45.703165" lon="11.2989717"><ele>460.0</ele><time>2026-04-20T12:52:42.875Z</time></trkpt><trkpt lat="45.70314" lon="11.2990633"><ele>460.0</ele><time>2026-04-20T12:52:45.875Z</time></trkpt><trkpt lat="45.703145" lon="11.2992267"><ele>460.0</ele><time>2026-04-20T12:52:47.875Z</time></trkpt><trkpt lat="45.7031467" lon="11.29949"><ele>460.0</ele><time>2026-04-20T12:52:50.875Z</time></trkpt><trkpt lat="45.7031383" lon="11.2996267"><ele>460.0</ele><time>2026-04-20T12:52:52.875Z</time></trkpt><trkpt lat="45.703095" lon="11.2997217"><ele>460.0</ele><time>2026-04-20T12:53:31.875Z</time></trkpt><trkpt lat="45.7030917" lon="11.2996183"><ele>460.0</ele><time>2026-04-20T12:53:33.875Z</time></trkpt><trkpt lat="45.7030733" lon="11.29946"><ele>460.0</ele><time>2026-04-20T12:53:35.876Z</time></trkpt><trkpt lat="45.7029667" lon="11.299055"><ele>467.75</ele><time>2026-04-20T12:53:41.875Z</time></trkpt><trkpt lat="45.7028883" lon="11.2987333"><ele>475.5</ele><time>2026-04-20T12:53:45.875Z</time></trkpt><trkpt lat="45.7028667" lon="11.2986117"><ele>483.25</ele><time>2026-04-20T12:53:46.875Z</time></trkpt><trkpt lat="45.7028467" lon="11.2984817"><ele>491.0</ele><time>2026-04-20T12:53:47.875Z</time></trkpt><trkpt lat="45.70282" lon="11.2983617"><ele>490.99999999999994</ele><time>2026-04-20T12:53:48.875Z</time></trkpt><trkpt lat="45.7027833" lon="11.2982583"><ele>491.0</ele><time>2026-04-20T12:53:49.875Z</time></trkpt><trkpt lat="45.7027333" lon="11.2981783"><ele>491.0</ele><time>2026-04-20T12:53:50.875Z</time></trkpt><trkpt lat="45.7026733" lon="11.2981067"><ele>491.0</ele><time>2026-04-20T12:53:51.876Z</time></trkpt><trkpt lat="45.7026167" lon="11.2980267"><ele>490.99999999999994</ele><time>2026-04-20T12:53:52.875Z</time></trkpt><trkpt lat="45.7025467" lon="11.297885"><ele>491.0</ele><time>2026-04-20T12:53:54.874Z</time></trkpt><trkpt lat="45.70248" lon="11.2977683"><ele>487.75</ele><time>2026-04-20T12:53:55.874Z</time></trkpt><trkpt lat="45.702395" lon="11.2976483"><ele>484.5</ele><time>2026-04-20T12:53:56.874Z</time></trkpt><trkpt lat="45.7023183" lon="11.2975267"><ele>481.25</ele><time>2026-04-20T12:53:57.874Z</time></trkpt><trkpt lat="45.702245" lon="11.2973933"><ele>478.0</ele><time>2026-04-20T12:53:58.874Z</time></trkpt><trkpt lat="45.70218" lon="11.2972517"><ele>478.00000000000006</ele><time>2026-04-20T12:53:59.874Z</time></trkpt><trkpt lat="45.7021317" lon="11.2971133"><ele>478.0</ele><time>2026-04-20T12:54:00.874Z</time></trkpt><trkpt lat="45.70209" lon="11.296995"><ele>478.0</ele><time>2026-04-20T12:54:01.874Z</time></trkpt><trkpt lat="45.7020767" lon="11.2968867"><ele>478.0</ele><time>2026-04-20T12:54:02.874Z</time></trkpt><trkpt lat="45.7020783" lon="11.29678"><ele>478.00000000000006</ele><time>2026-04-20T12:54:03.874Z</time></trkpt><trkpt lat="45.7020967" lon="11.2966783"><ele>478.0</ele><time>2026-04-20T12:54:04.874Z</time></trkpt><trkpt lat="45.7021133" lon="11.2965817"><ele>478.0</ele><time>2026-04-20T12:54:05.874Z</time></trkpt><trkpt lat="45.70211" lon="11.2964433"><ele>477.99999999999994</ele><time>2026-04-20T12:54:07.874Z</time></trkpt><trkpt lat="45.7020083" lon="11.2964617"><ele>477.99999999999994</ele><time>2026-04-20T12:54:10.874Z</time></trkpt><trkpt lat="45.7019283" lon="11.2965133"><ele>478.0</ele><time>2026-04-20T12:54:12.875Z</time></trkpt><trkpt lat="45.7017983" lon="11.2966183"><ele>478.0</ele><time>2026-04-20T12:54:14.874Z</time></trkpt><trkpt lat="45.7017017" lon="11.29671"><ele>474.59999999999997</ele><time>2026-04-20T12:54:15.874Z</time></trkpt><trkpt lat="45.7016133" lon="11.29681"><ele>471.19999999999993</ele><time>2026-04-20T12:54:16.874Z</time></trkpt><trkpt lat="45.701545" lon="11.2969133"><ele>467.8</ele><time>2026-04-20T12:54:17.874Z</time></trkpt><trkpt lat="45.7014783" lon="11.297025"><ele>464.4</ele><time>2026-04-20T12:54:18.874Z</time></trkpt><trkpt lat="45.70142" lon="11.297135"><ele>461.0</ele><time>2026-04-20T12:54:19.874Z</time></trkpt><trkpt lat="45.701355" lon="11.2972533"><ele>462.49999999999994</ele><time>2026-04-20T12:54:20.874Z</time></trkpt><trkpt lat="45.7013017" lon="11.2973583"><ele>464.0</ele><time>2026-04-20T12:54:21.874Z</time></trkpt><trkpt lat="45.701245" lon="11.2974367"><ele>465.5</ele><time>2026-04-20T12:54:22.874Z</time></trkpt><trkpt lat="45.7011917" lon="11.2974933"><ele>467.0</ele><time>2026-04-20T12:54:23.874Z</time></trkpt><trkpt lat="45.7011083" lon="11.297515"><ele>468.49999999999994</ele><time>2026-04-20T12:54:25.874Z</time></trkpt><trkpt lat="45.7010117" lon="11.2975017"><ele>470.0</ele><time>2026-04-20T12:54:27.874Z</time></trkpt><trkpt lat="45.7009467" lon="11.297505"><ele>469.99999999999994</ele><time>2026-04-20T12:54:28.874Z</time></trkpt><trkpt lat="45.7008683" lon="11.29752"><ele>470.0</ele><time>2026-04-20T12:54:29.874Z</time></trkpt><trkpt lat="45.700795" lon="11.2975617"><ele>470.0</ele><time>2026-04-20T12:54:30.874Z</time></trkpt><trkpt lat="45.7007333" lon="11.2976167"><ele>470.0</ele><time>2026-04-20T12:54:31.874Z</time></trkpt><trkpt lat="45.7006767" lon="11.297695"><ele>469.99999999999994</ele><time>2026-04-20T12:54:32.874Z</time></trkpt><trkpt lat="45.7006033" lon="11.2977967"><ele>470.0</ele><time>2026-04-20T12:54:33.874Z</time></trkpt><trkpt lat="45.7005517" lon="11.2979083"><ele>470.0</ele><time>2026-04-20T12:54:34.874Z</time></trkpt><trkpt lat="45.7004867" lon="11.2980483"><ele>470.0</ele><time>2026-04-20T12:54:35.874Z</time></trkpt><trkpt lat="45.700445" lon="11.2982133"><ele>470.0</ele><time>2026-04-20T12:54:36.874Z</time></trkpt><trkpt lat="45.7004167" lon="11.29835"><ele>470.0</ele><time>2026-04-20T12:54:37.874Z</time></trkpt><trkpt lat="45.7004033" lon="11.2985117"><ele>466.66666666666663</ele><time>2026-04-20T12:54:38.874Z</time></trkpt><trkpt lat="45.70039" lon="11.2986633"><ele>463.3333333333333</ele><time>2026-04-20T12:54:39.874Z</time></trkpt><trkpt lat="45.7003767" lon="11.29878"><ele>460.0</ele><time>2026-04-20T12:54:40.875Z</time></trkpt><trkpt lat="45.70035" lon="11.2988767"><ele>456.66666666666663</ele><time>2026-04-20T12:54:41.874Z</time></trkpt><trkpt lat="45.7002933" lon="11.2989483"><ele>453.3333333333333</ele><time>2026-04-20T12:54:43.874Z</time></trkpt><trkpt lat="45.70021" lon="11.2989817"><ele>450.0</ele><time>2026-04-20T12:54:45.875Z</time></trkpt><trkpt lat="45.7001083" lon="11.2989917"><ele>449.5</ele><time>2026-04-20T12:54:47.874Z</time></trkpt><trkpt lat="45.7000417" lon="11.29897"><ele>449.0</ele><time>2026-04-20T12:54:48.874Z</time></trkpt><trkpt lat="45.6999733" lon="11.2989233"><ele>448.5</ele><time>2026-04-20T12:54:49.874Z</time></trkpt><trkpt lat="45.6999067" lon="11.2988567"><ele>448.0</ele><time>2026-04-20T12:54:50.874Z</time></trkpt><trkpt lat="45.6998333" lon="11.2987717"><ele>447.5</ele><time>2026-04-20T12:54:51.874Z</time></trkpt><trkpt lat="45.6997717" lon="11.29866"><ele>447.0</ele><time>2026-04-20T12:54:52.874Z</time></trkpt><trkpt lat="45.6997133" lon="11.2985533"><ele>448.85714285714283</ele><time>2026-04-20T12:54:53.874Z</time></trkpt><trkpt lat="45.6996667" lon="11.2984667"><ele>450.71428571428567</ele><time>2026-04-20T12:54:54.874Z</time></trkpt><trkpt lat="45.6996217" lon="11.2983967"><ele>452.57142857142856</ele><time>2026-04-20T12:54:55.874Z</time></trkpt><trkpt lat="45.6995633" lon="11.2983267"><ele>454.4285714285714</ele><time>2026-04-20T12:54:56.874Z</time></trkpt><trkpt lat="45.69951" lon="11.2982783"><ele>456.2857142857143</ele><time>2026-04-20T12:54:57.874Z</time></trkpt><trkpt lat="45.6994467" lon="11.298275"><ele>458.14285714285705</ele><time>2026-04-20T12:54:58.874Z</time></trkpt><trkpt lat="45.69938" lon="11.2983167"><ele>459.99999999999994</ele><time>2026-04-20T12:54:59.874Z</time></trkpt><trkpt lat="45.699295" lon="11.2983783"><ele>460.00000000000006</ele><time>2026-04-20T12:55:00.874Z</time></trkpt><trkpt lat="45.6992383" lon="11.2984567"><ele>460.0</ele><time>2026-04-20T12:55:01.874Z</time></trkpt><trkpt lat="45.6991667" lon="11.2985183"><ele>460.0</ele><time>2026-04-20T12:55:02.874Z</time></trkpt><trkpt lat="45.6991067" lon="11.298555"><ele>460.0</ele><time>2026-04-20T12:55:03.874Z</time></trkpt><trkpt lat="45.6990433" lon="11.298575"><ele>460.00000000000006</ele><time>2026-04-20T12:55:04.874Z</time></trkpt><trkpt lat="45.69892" lon="11.29852"><ele>460.0</ele><time>2026-04-20T12:55:06.874Z</time></trkpt><trkpt lat="45.69884" lon="11.2984633"><ele>460.00000000000006</ele><time>2026-04-20T12:55:07.874Z</time></trkpt><trkpt lat="45.6987783" lon="11.298415"><ele>460.0</ele><time>2026-04-20T12:55:08.875Z</time></trkpt><trkpt lat="45.6987" lon="11.2983767"><ele>460.0</ele><time>2026-04-20T12:55:09.874Z</time></trkpt><trkpt lat="45.69862" lon="11.2983183"><ele>460.0</ele><time>2026-04-20T12:55:10.874Z</time></trkpt><trkpt lat="45.69856" lon="11.298245"><ele>460.00000000000006</ele><time>2026-04-20T12:55:11.874Z</time></trkpt><trkpt lat="45.69848" lon="11.2981583"><ele>460.0</ele><time>2026-04-20T12:55:12.874Z</time></trkpt><trkpt lat="45.6984033" lon="11.29807"><ele>461.1666666666667</ele><time>2026-04-20T12:55:13.874Z</time></trkpt><trkpt lat="45.6983417" lon="11.2979833"><ele>462.33333333333337</ele><time>2026-04-20T12:55:14.874Z</time></trkpt><trkpt lat="45.6982817" lon="11.2978867"><ele>463.5</ele><time>2026-04-20T12:55:15.874Z</time></trkpt><trkpt lat="45.6982217" lon="11.297785"><ele>464.66666666666663</ele><time>2026-04-20T12:55:16.875Z</time></trkpt><trkpt lat="45.6981667" lon="11.2977017"><ele>465.8333333333333</ele><time>2026-04-20T12:55:17.874Z</time></trkpt><trkpt lat="45.698095" lon="11.29764"><ele>467.0</ele><time>2026-04-20T12:55:18.874Z</time></trkpt><trkpt lat="45.69803" lon="11.2976233"><ele>467.0</ele><time>2026-04-20T12:55:19.874Z</time></trkpt><trkpt lat="45.69795" lon="11.2976133"><ele>467.00000000000006</ele><time>2026-04-20T12:55:20.874Z</time></trkpt><trkpt lat="45.6978767" lon="11.2977417"><ele>467.00000000000006</ele><time>2026-04-20T12:55:22.874Z</time></trkpt><trkpt lat="45.6979" lon="11.2979267"><ele>467.0</ele><time>2026-04-20T12:55:24.874Z</time></trkpt><trkpt lat="45.6979383" lon="11.2980283"><ele>467.0</ele><time>2026-04-20T12:55:25.874Z</time></trkpt><trkpt lat="45.6979867" lon="11.2981517"><ele>460.5</ele><time>2026-04-20T12:55:26.874Z</time></trkpt><trkpt lat="45.6980483" lon="11.29827"><ele>454.0</ele><time>2026-04-20T12:55:27.874Z</time></trkpt><trkpt lat="45.6981617" lon="11.2984183"><ele>447.5</ele><time>2026-04-20T12:55:28.874Z</time></trkpt><trkpt lat="45.6982267" lon="11.2985367"><ele>441.0</ele><time>2026-04-20T12:55:29.874Z</time></trkpt><trkpt lat="45.6982783" lon="11.2986667"><ele>441.0</ele><time>2026-04-20T12:55:30.874Z</time></trkpt><trkpt lat="45.698345" lon="11.2987917"><ele>441.0</ele><time>2026-04-20T12:55:31.874Z</time></trkpt><trkpt lat="45.6984033" lon="11.2989083"><ele>441.0</ele><time>2026-04-20T12:55:32.875Z</time></trkpt><trkpt lat="45.698455" lon="11.2990183"><ele>441.0</ele><time>2026-04-20T12:55:33.874Z</time></trkpt><trkpt lat="45.698505" lon="11.2991283"><ele>441.0</ele><time>2026-04-20T12:55:34.875Z</time></trkpt><trkpt lat="45.6985483" lon="11.2992467"><ele>439.6666666666667</ele><time>2026-04-20T12:55:35.874Z</time></trkpt><trkpt lat="45.6985867" lon="11.2993617"><ele>438.33333333333337</ele><time>2026-04-20T12:55:36.874Z</time></trkpt><trkpt lat="45.698635" lon="11.2994783"><ele>437.0</ele><time>2026-04-20T12:55:37.874Z</time></trkpt><trkpt lat="45.698675" lon="11.2995917"><ele>435.6666666666667</ele><time>2026-04-20T12:55:38.874Z</time></trkpt><trkpt lat="45.69871" lon="11.29971"><ele>434.33333333333337</ele><time>2026-04-20T12:55:39.874Z</time></trkpt><trkpt lat="45.69872" lon="11.2998333"><ele>433.0</ele><time>2026-04-20T12:55:40.874Z</time></trkpt><trkpt lat="45.6987333" lon="11.299965"><ele>429.1666666666667</ele><time>2026-04-20T12:55:41.874Z</time></trkpt><trkpt lat="45.69874" lon="11.3001017"><ele>425.33333333333337</ele><time>2026-04-20T12:55:42.874Z</time></trkpt><trkpt lat="45.6987483" lon="11.300235"><ele>421.5</ele><time>2026-04-20T12:55:43.874Z</time></trkpt><trkpt lat="45.6987583" lon="11.30037"><ele>417.66666666666663</ele><time>2026-04-20T12:55:44.874Z</time></trkpt><trkpt lat="45.698765" lon="11.3004883"><ele>413.8333333333333</ele><time>2026-04-20T12:55:45.874Z</time></trkpt><trkpt lat="45.6987617" lon="11.3005983"><ele>410.0</ele><time>2026-04-20T12:55:46.874Z</time></trkpt><trkpt lat="45.69878" lon="11.3006983"><ele>408.0</ele><time>2026-04-20T12:55:47.874Z</time></trkpt><trkpt lat="45.69882" lon="11.3007883"><ele>406.0</ele><time>2026-04-20T12:55:48.874Z</time></trkpt><trkpt lat="45.6988683" lon="11.3008783"><ele>404.0</ele><time>2026-04-20T12:55:49.874Z</time></trkpt><trkpt lat="45.6989167" lon="11.3009533"><ele>402.0</ele><time>2026-04-20T12:55:50.874Z</time></trkpt><trkpt lat="45.6989617" lon="11.3010317"><ele>400.0</ele><time>2026-04-20T12:55:51.874Z</time></trkpt><trkpt lat="45.699005" lon="11.3011117"><ele>398.0</ele><time>2026-04-20T12:55:52.874Z</time></trkpt><trkpt lat="45.6990317" lon="11.3011983"><ele>396.0</ele><time>2026-04-20T12:55:53.874Z</time></trkpt><trkpt lat="45.6990617" lon="11.301285"><ele>395.6666666666667</ele><time>2026-04-20T12:55:54.874Z</time></trkpt><trkpt lat="45.6990917" lon="11.3014583"><ele>395.33333333333337</ele><time>2026-04-20T12:55:56.874Z</time></trkpt><trkpt lat="45.6991217" lon="11.30155"><ele>395.0</ele><time>2026-04-20T12:55:57.874Z</time></trkpt><trkpt lat="45.6991733" lon="11.30164"><ele>394.6666666666667</ele><time>2026-04-20T12:55:58.874Z</time></trkpt><trkpt lat="45.6992433" lon="11.3017167"><ele>394.33333333333337</ele><time>2026-04-20T12:55:59.874Z</time></trkpt><trkpt lat="45.69931" lon="11.3017867"><ele>394.0</ele><time>2026-04-20T12:56:00.874Z</time></trkpt><trkpt lat="45.6993717" lon="11.3018567"><ele>391.79999999999995</ele><time>2026-04-20T12:56:01.874Z</time></trkpt><trkpt lat="45.69943" lon="11.30195"><ele>389.59999999999997</ele><time>2026-04-20T12:56:02.874Z</time></trkpt><trkpt lat="45.6994917" lon="11.3020667"><ele>387.4</ele><time>2026-04-20T12:56:03.874Z</time></trkpt><trkpt lat="45.6995517" lon="11.302185"><ele>385.2</ele><time>2026-04-20T12:56:04.874Z</time></trkpt><trkpt lat="45.6996167" lon="11.302305"><ele>383.0</ele><time>2026-04-20T12:56:05.875Z</time></trkpt><trkpt lat="45.6996867" lon="11.30244"><ele>380.5</ele><time>2026-04-20T12:56:06.874Z</time></trkpt><trkpt lat="45.6997533" lon="11.3025917"><ele>378.0</ele><time>2026-04-20T12:56:07.874Z</time></trkpt><trkpt lat="45.6998167" lon="11.3027517"><ele>375.5</ele><time>2026-04-20T12:56:08.875Z</time></trkpt><trkpt lat="45.6998783" lon="11.3029367"><ele>373.0</ele><time>2026-04-20T12:56:09.874Z</time></trkpt><trkpt lat="45.699935" lon="11.3030917"><ele>371.5</ele><time>2026-04-20T12:56:10.874Z</time></trkpt><trkpt lat="45.699995" lon="11.3032333"><ele>370.0</ele><time>2026-04-20T12:56:11.874Z</time></trkpt><trkpt lat="45.7000683" lon="11.3033783"><ele>368.5</ele><time>2026-04-20T12:56:12.874Z</time></trkpt><trkpt lat="45.7001367" lon="11.3035067"><ele>367.0</ele><time>2026-04-20T12:56:13.874Z</time></trkpt><trkpt lat="45.700215" lon="11.3036317"><ele>363.75</ele><time>2026-04-20T12:56:14.874Z</time></trkpt><trkpt lat="45.7002833" lon="11.303765"><ele>360.5</ele><time>2026-04-20T12:56:15.874Z</time></trkpt><trkpt lat="45.7003467" lon="11.3039033"><ele>357.25</ele><time>2026-04-20T12:56:16.874Z</time></trkpt><trkpt lat="45.70041" lon="11.3040483"><ele>354.0</ele><time>2026-04-20T12:56:17.874Z</time></trkpt><trkpt lat="45.7004783" lon="11.3041833"><ele>352.79999999999995</ele><time>2026-04-20T12:56:18.874Z</time></trkpt><trkpt lat="45.7005467" lon="11.3043117"><ele>351.59999999999997</ele><time>2026-04-20T12:56:19.874Z</time></trkpt><trkpt lat="45.7006117" lon="11.3044383"><ele>350.4</ele><time>2026-04-20T12:56:20.874Z</time></trkpt><trkpt lat="45.7006783" lon="11.3045567"><ele>349.2</ele><time>2026-04-20T12:56:21.874Z</time></trkpt><trkpt lat="45.7007433" lon="11.3046717"><ele>348.0</ele><time>2026-04-20T12:56:22.874Z</time></trkpt><trkpt lat="45.7008083" lon="11.3047633"><ele>347.79999999999995</ele><time>2026-04-20T12:56:23.874Z</time></trkpt><trkpt lat="45.7008767" lon="11.30485"><ele>347.6</ele><time>2026-04-20T12:56:24.874Z</time></trkpt><trkpt lat="45.70095" lon="11.304925"><ele>347.4</ele><time>2026-04-20T12:56:25.874Z</time></trkpt><trkpt lat="45.70103" lon="11.3050033"><ele>347.20000000000005</ele><time>2026-04-20T12:56:26.874Z</time></trkpt><trkpt lat="45.70111" lon="11.3050667"><ele>347.0</ele><time>2026-04-20T12:56:27.874Z</time></trkpt><trkpt lat="45.7011917" lon="11.3051183"><ele>347.0</ele><time>2026-04-20T12:56:28.875Z</time></trkpt><trkpt lat="45.7012617" lon="11.30519"><ele>347.0</ele><time>2026-04-20T12:56:29.874Z</time></trkpt><trkpt lat="45.7013317" lon="11.3053017"><ele>347.0</ele><time>2026-04-20T12:56:30.874Z</time></trkpt><trkpt lat="45.7013967" lon="11.305455"><ele>347.0</ele><time>2026-04-20T12:56:31.874Z</time></trkpt><trkpt lat="45.70146" lon="11.305635"><ele>345.25</ele><time>2026-04-20T12:56:32.874Z</time></trkpt><trkpt lat="45.7015217" lon="11.3058183"><ele>343.5</ele><time>2026-04-20T12:56:33.874Z</time></trkpt><trkpt lat="45.70158" lon="11.3059917"><ele>341.75</ele><time>2026-04-20T12:56:34.874Z</time></trkpt><trkpt lat="45.7016267" lon="11.3061683"><ele>340.0</ele><time>2026-04-20T12:56:35.874Z</time></trkpt><trkpt lat="45.70168" lon="11.3063317"><ele>338.0</ele><time>2026-04-20T12:56:36.874Z</time></trkpt><trkpt lat="45.7017267" lon="11.306515"><ele>336.0</ele><time>2026-04-20T12:56:37.874Z</time></trkpt><trkpt lat="45.701775" lon="11.306695"><ele>334.0</ele><time>2026-04-20T12:56:38.874Z</time></trkpt><trkpt lat="45.70182" lon="11.306875"><ele>332.0</ele><time>2026-04-20T12:56:39.874Z</time></trkpt><trkpt lat="45.701855" lon="11.3070317"><ele>332.0</ele><time>2026-04-20T12:56:40.874Z</time></trkpt><trkpt lat="45.7018783" lon="11.3071583"><ele>332.0</ele><time>2026-04-20T12:56:41.874Z</time></trkpt><trkpt lat="45.70188" lon="11.3072683"><ele>332.0</ele><time>2026-04-20T12:56:42.874Z</time></trkpt><trkpt lat="45.7018567" lon="11.307395"><ele>332.0</ele><time>2026-04-20T12:56:43.875Z</time></trkpt><trkpt lat="45.7018167" lon="11.3075183"><ele>332.0</ele><time>2026-04-20T12:56:44.874Z</time></trkpt><trkpt lat="45.701775" lon="11.3076417"><ele>329.6</ele><time>2026-04-20T12:56:45.874Z</time></trkpt><trkpt lat="45.7017717" lon="11.30778"><ele>327.20000000000005</ele><time>2026-04-20T12:56:46.874Z</time></trkpt><trkpt lat="45.7017733" lon="11.3079367"><ele>324.8</ele><time>2026-04-20T12:56:47.874Z</time></trkpt><trkpt lat="45.701795" lon="11.3080883"><ele>322.4</ele><time>2026-04-20T12:56:48.874Z</time></trkpt><trkpt lat="45.7018233" lon="11.308245"><ele>320.0</ele><time>2026-04-20T12:56:49.874Z</time></trkpt><trkpt lat="45.7018533" lon="11.3083967"><ele>319.0</ele><time>2026-04-20T12:56:50.875Z</time></trkpt><trkpt lat="45.7019083" lon="11.3086967"><ele>318.0</ele><time>2026-04-20T12:56:52.874Z</time></trkpt><trkpt lat="45.7019383" lon="11.3088583"><ele>317.0</ele><time>2026-04-20T12:56:53.875Z</time></trkpt><trkpt lat="45.7021083" lon="11.3093383"><ele>307.5</ele><time>2026-04-20T12:56:56.874Z</time></trkpt><trkpt lat="45.702385" lon="11.3097817"><ele>298.0</ele><time>2026-04-20T12:56:59.874Z</time></trkpt><trkpt lat="45.7024767" lon="11.3099217"><ele>301.0</ele><time>2026-04-20T12:57:00.874Z</time></trkpt><trkpt lat="45.7027983" lon="11.310515"><ele>298.25</ele><time>2026-04-20T12:57:04.874Z</time></trkpt><trkpt lat="45.7028817" lon="11.3106983"><ele>295.5</ele><time>2026-04-20T12:57:05.874Z</time></trkpt><trkpt lat="45.7029683" lon="11.3108717"><ele>292.75</ele><time>2026-04-20T12:57:06.874Z</time></trkpt><trkpt lat="45.70305" lon="11.3110333"><ele>290.0</ele><time>2026-04-20T12:57:07.874Z</time></trkpt><trkpt lat="45.703135" lon="11.3112"><ele>290.0</ele><time>2026-04-20T12:57:08.874Z</time></trkpt><trkpt lat="45.7032233" lon="11.3113517"><ele>290.0</ele><time>2026-04-20T12:57:09.874Z</time></trkpt><trkpt lat="45.7033083" lon="11.3115"><ele>290.0</ele><time>2026-04-20T12:57:10.874Z</time></trkpt><trkpt lat="45.7037483" lon="11.3119133"><ele>287.6666666666667</ele><time>2026-04-20T12:57:14.874Z</time></trkpt><trkpt lat="45.703895" lon="11.3119717"><ele>285.3333333333333</ele><time>2026-04-20T12:57:15.874Z</time></trkpt><trkpt lat="45.704045" lon="11.3120133"><ele>283.0</ele><time>2026-04-20T12:57:16.874Z</time></trkpt><trkpt lat="45.70419" lon="11.3120483"><ele>283.0</ele><time>2026-04-20T12:57:17.874Z</time></trkpt><trkpt lat="45.7043367" lon="11.3120883"><ele>283.0</ele><time>2026-04-20T12:57:18.874Z</time></trkpt><trkpt lat="45.7044767" lon="11.3121333"><ele>283.0</ele><time>2026-04-20T12:57:19.874Z</time></trkpt><trkpt lat="45.7046067" lon="11.3121867"><ele>283.0</ele><time>2026-04-20T12:57:20.874Z</time></trkpt><trkpt lat="45.70473" lon="11.3122317"><ele>282.25</ele><time>2026-04-20T12:57:21.874Z</time></trkpt><trkpt lat="45.7048433" lon="11.3122783"><ele>281.5</ele><time>2026-04-20T12:57:22.874Z</time></trkpt><trkpt lat="45.704955" lon="11.3123"><ele>280.75</ele><time>2026-04-20T12:57:23.874Z</time></trkpt><trkpt lat="45.7050683" lon="11.3123117"><ele>280.0</ele><time>2026-04-20T12:57:24.874Z</time></trkpt><trkpt lat="45.7051867" lon="11.3123183"><ele>279.0</ele><time>2026-04-20T12:57:25.874Z</time></trkpt><trkpt lat="45.705295" lon="11.31232"><ele>278.0</ele><time>2026-04-20T12:57:26.874Z</time></trkpt><trkpt lat="45.70539" lon="11.3123183"><ele>277.0</ele><time>2026-04-20T12:57:27.874Z</time></trkpt><trkpt lat="45.7054717" lon="11.3123183"><ele>276.0</ele><time>2026-04-20T12:57:28.874Z</time></trkpt><trkpt lat="45.70554" lon="11.3123167"><ele>275.0</ele><time>2026-04-20T12:57:29.874Z</time></trkpt><trkpt lat="45.70563" lon="11.3123133"><ele>274.0</ele><time>2026-04-20T12:57:30.874Z</time></trkpt><trkpt lat="45.7057183" lon="11.3123133"><ele>274.0</ele><time>2026-04-20T12:57:31.874Z</time></trkpt><trkpt lat="45.7058067" lon="11.31231"><ele>274.0</ele><time>2026-04-20T12:57:32.874Z</time></trkpt><trkpt lat="45.7059017" lon="11.3123283"><ele>274.0</ele><time>2026-04-20T12:57:33.874Z</time></trkpt><trkpt lat="45.706" lon="11.31237"><ele>274.0</ele><time>2026-04-20T12:57:34.874Z</time></trkpt><trkpt lat="45.7060883" lon="11.3124267"><ele>274.0</ele><time>2026-04-20T12:57:35.874Z</time></trkpt><trkpt lat="45.70619" lon="11.31248"><ele>272.8</ele><time>2026-04-20T12:57:36.874Z</time></trkpt><trkpt lat="45.7062933" lon="11.3125233"><ele>271.59999999999997</ele><time>2026-04-20T12:57:37.874Z</time></trkpt><trkpt lat="45.7063833" lon="11.312575"><ele>270.4</ele><time>2026-04-20T12:57:38.874Z</time></trkpt><trkpt lat="45.706465" lon="11.312645"><ele>269.2</ele><time>2026-04-20T12:57:39.874Z</time></trkpt><trkpt lat="45.70654" lon="11.312755"><ele>268.0</ele><time>2026-04-20T12:57:40.874Z</time></trkpt><trkpt lat="45.7066183" lon="11.312885"><ele>268.0</ele><time>2026-04-20T12:57:41.874Z</time></trkpt><trkpt lat="45.706695" lon="11.3130417"><ele>268.0</ele><time>2026-04-20T12:57:42.874Z</time></trkpt><trkpt lat="45.706775" lon="11.3131867"><ele>268.0</ele><time>2026-04-20T12:57:43.874Z</time></trkpt><trkpt lat="45.706845" lon="11.3133383"><ele>268.0</ele><time>2026-04-20T12:57:44.874Z</time></trkpt><trkpt lat="45.7069083" lon="11.3135083"><ele>266.5</ele><time>2026-04-20T12:57:45.874Z</time></trkpt><trkpt lat="45.70699" lon="11.3136617"><ele>265.0</ele><time>2026-04-20T12:57:46.874Z</time></trkpt><trkpt lat="45.7070817" lon="11.313815"><ele>263.5</ele><time>2026-04-20T12:57:47.874Z</time></trkpt><trkpt lat="45.7071733" lon="11.3139583"><ele>262.0</ele><time>2026-04-20T12:57:48.874Z</time></trkpt><trkpt lat="45.707265" lon="11.314105"><ele>262.0</ele><time>2026-04-20T12:57:49.874Z</time></trkpt><trkpt lat="45.7073683" lon="11.3142383"><ele>262.0</ele><time>2026-04-20T12:57:50.875Z</time></trkpt><trkpt lat="45.70749" lon="11.3143467"><ele>262.0</ele><time>2026-04-20T12:57:51.874Z</time></trkpt><trkpt lat="45.7076317" lon="11.314445"><ele>262.0</ele><time>2026-04-20T12:57:52.874Z</time></trkpt><trkpt lat="45.707755" lon="11.314515"><ele>262.0</ele><time>2026-04-20T12:57:53.874Z</time></trkpt><trkpt lat="45.70792" lon="11.31459"><ele>262.0</ele><time>2026-04-20T12:57:54.874Z</time></trkpt><trkpt lat="45.7080783" lon="11.3146533"><ele>262.0</ele><time>2026-04-20T12:57:55.874Z</time></trkpt><trkpt lat="45.70823" lon="11.3147"><ele>262.0</ele><time>2026-04-20T12:57:56.874Z</time></trkpt><trkpt lat="45.7083867" lon="11.3147083"><ele>262.0</ele><time>2026-04-20T12:57:57.874Z</time></trkpt><trkpt lat="45.7085433" lon="11.3146933"><ele>262.0</ele><time>2026-04-20T12:57:58.874Z</time></trkpt><trkpt lat="45.7086917" lon="11.3146783"><ele>260.5</ele><time>2026-04-20T12:57:59.874Z</time></trkpt><trkpt lat="45.7088267" lon="11.31468"><ele>259.0</ele><time>2026-04-20T12:58:00.874Z</time></trkpt><trkpt lat="45.7089583" lon="11.3147167"><ele>257.5</ele><time>2026-04-20T12:58:01.874Z</time></trkpt><trkpt lat="45.7090833" lon="11.3147683"><ele>256.0</ele><time>2026-04-20T12:58:02.874Z</time></trkpt><trkpt lat="45.7092017" lon="11.3148167"><ele>256.0</ele><time>2026-04-20T12:58:03.874Z</time></trkpt><trkpt lat="45.7093217" lon="11.3148517"><ele>256.0</ele><time>2026-04-20T12:58:04.874Z</time></trkpt><trkpt lat="45.7094467" lon="11.314875"><ele>256.0</ele><time>2026-04-20T12:58:05.874Z</time></trkpt><trkpt lat="45.7095583" lon="11.31493"><ele>256.0</ele><time>2026-04-20T12:58:06.874Z</time></trkpt><trkpt lat="45.7096917" lon="11.3149383"><ele>255.0</ele><time>2026-04-20T12:58:07.874Z</time></trkpt><trkpt lat="45.70983" lon="11.3149083"><ele>254.0</ele><time>2026-04-20T12:58:08.874Z</time></trkpt><trkpt lat="45.7099867" lon="11.3148633"><ele>253.0</ele><time>2026-04-20T12:58:09.874Z</time></trkpt><trkpt lat="45.710145" lon="11.3148217"><ele>252.75</ele><time>2026-04-20T12:58:10.874Z</time></trkpt><trkpt lat="45.7102983" lon="11.31478"><ele>252.5</ele><time>2026-04-20T12:58:11.874Z</time></trkpt><trkpt lat="45.710445" lon="11.3147683"><ele>252.25</ele><time>2026-04-20T12:58:12.874Z</time></trkpt><trkpt lat="45.71059" lon="11.314785"><ele>252.0</ele><time>2026-04-20T12:58:13.874Z</time></trkpt><trkpt lat="45.710735" lon="11.3148383"><ele>252.0</ele><time>2026-04-20T12:58:14.874Z</time></trkpt><trkpt lat="45.7108933" lon="11.3148817"><ele>252.0</ele><time>2026-04-20T12:58:15.874Z</time></trkpt><trkpt lat="45.7110583" lon="11.31491"><ele>252.0</ele><time>2026-04-20T12:58:16.875Z</time></trkpt><trkpt lat="45.7112117" lon="11.31495"><ele>251.25</ele><time>2026-04-20T12:58:17.874Z</time></trkpt><trkpt lat="45.7113717" lon="11.3149967"><ele>250.5</ele><time>2026-04-20T12:58:18.874Z</time></trkpt><trkpt lat="45.7115117" lon="11.3150117"><ele>249.75</ele><time>2026-04-20T12:58:19.874Z</time></trkpt><trkpt lat="45.7116533" lon="11.31503"><ele>249.0</ele><time>2026-04-20T12:58:20.874Z</time></trkpt><trkpt lat="45.7117817" lon="11.3150333"><ele>249.0</ele><time>2026-04-20T12:58:21.874Z</time></trkpt><trkpt lat="45.7118933" lon="11.315025"><ele>248.99999999999997</ele><time>2026-04-20T12:58:22.874Z</time></trkpt><trkpt lat="45.711985" lon="11.3150183"><ele>248.99999999999997</ele><time>2026-04-20T12:58:23.874Z</time></trkpt><trkpt lat="45.712095" lon="11.3150083"><ele>249.0</ele><time>2026-04-20T12:58:25.874Z</time></trkpt><trkpt lat="45.71211" lon="11.3150967"><ele>249.0</ele><time>2026-04-20T12:58:27.874Z</time></trkpt><trkpt lat="45.7120917" lon="11.315205"><ele>246.5</ele><time>2026-04-20T12:58:28.874Z</time></trkpt><trkpt lat="45.7120683" lon="11.3153817"><ele>244.0</ele><time>2026-04-20T12:58:29.874Z</time></trkpt><trkpt lat="45.7120533" lon="11.3155633"><ele>241.5</ele><time>2026-04-20T12:58:30.874Z</time></trkpt><trkpt lat="45.712055" lon="11.3157317"><ele>239.0</ele><time>2026-04-20T12:58:31.874Z</time></trkpt><trkpt lat="45.71204" lon="11.3159017"><ele>237.75</ele><time>2026-04-20T12:58:32.874Z</time></trkpt><trkpt lat="45.71201" lon="11.316065"><ele>236.5</ele><time>2026-04-20T12:58:33.874Z</time></trkpt><trkpt lat="45.7119667" lon="11.316235"><ele>235.25</ele><time>2026-04-20T12:58:34.874Z</time></trkpt><trkpt lat="45.7119283" lon="11.316405"><ele>234.0</ele><time>2026-04-20T12:58:35.874Z</time></trkpt><trkpt lat="45.7118867" lon="11.3165633"><ele>233.25</ele><time>2026-04-20T12:58:36.874Z</time></trkpt><trkpt lat="45.7118583" lon="11.3167233"><ele>232.5</ele><time>2026-04-20T12:58:37.874Z</time></trkpt><trkpt lat="45.7118467" lon="11.3169"><ele>231.75</ele><time>2026-04-20T12:58:38.874Z</time></trkpt><trkpt lat="45.7118733" lon="11.317095"><ele>231.0</ele><time>2026-04-20T12:58:39.874Z</time></trkpt><trkpt lat="45.711915" lon="11.3172817"><ele>231.0</ele><time>2026-04-20T12:58:40.874Z</time></trkpt><trkpt lat="45.71194" lon="11.3174633"><ele>231.0</ele><time>2026-04-20T12:58:41.874Z</time></trkpt><trkpt lat="45.7119417" lon="11.3176533"><ele>231.0</ele><time>2026-04-20T12:58:42.874Z</time></trkpt><trkpt lat="45.7119467" lon="11.31784"><ele>231.0</ele><time>2026-04-20T12:58:43.874Z</time></trkpt><trkpt lat="45.7119483" lon="11.318025"><ele>231.25</ele><time>2026-04-20T12:58:44.873Z</time></trkpt><trkpt lat="45.711955" lon="11.31821"><ele>231.5</ele><time>2026-04-20T12:58:45.873Z</time></trkpt><trkpt lat="45.71198" lon="11.3183933"><ele>231.75</ele><time>2026-04-20T12:58:46.873Z</time></trkpt><trkpt lat="45.7120117" lon="11.3185767"><ele>232.0</ele><time>2026-04-20T12:58:47.873Z</time></trkpt><trkpt lat="45.71202" lon="11.3187617"><ele>231.75</ele><time>2026-04-20T12:58:48.873Z</time></trkpt><trkpt lat="45.712025" lon="11.3189383"><ele>231.5</ele><time>2026-04-20T12:58:49.873Z</time></trkpt><trkpt lat="45.7120483" lon="11.319105"><ele>231.25</ele><time>2026-04-20T12:58:50.873Z</time></trkpt><trkpt lat="45.7120767" lon="11.3192917"><ele>231.0</ele><time>2026-04-20T12:58:51.873Z</time></trkpt><trkpt lat="45.71209" lon="11.3194833"><ele>231.0</ele><time>2026-04-20T12:58:52.873Z</time></trkpt><trkpt lat="45.712095" lon="11.31968"><ele>231.0</ele><time>2026-04-20T12:58:53.873Z</time></trkpt><trkpt lat="45.7121017" lon="11.31988"><ele>231.0</ele><time>2026-04-20T12:58:54.873Z</time></trkpt><trkpt lat="45.712105" lon="11.3200683"><ele>231.0</ele><time>2026-04-20T12:58:55.873Z</time></trkpt><trkpt lat="45.7121167" lon="11.32025"><ele>230.25</ele><time>2026-04-20T12:58:56.873Z</time></trkpt><trkpt lat="45.7121333" lon="11.3204333"><ele>229.5</ele><time>2026-04-20T12:58:57.873Z</time></trkpt><trkpt lat="45.712135" lon="11.32062"><ele>228.75</ele><time>2026-04-20T12:58:58.873Z</time></trkpt><trkpt lat="45.712145" lon="11.3208233"><ele>228.0</ele><time>2026-04-20T12:58:59.873Z</time></trkpt><trkpt lat="45.7121533" lon="11.321025"><ele>227.75</ele><time>2026-04-20T12:59:00.873Z</time></trkpt><trkpt lat="45.7121617" lon="11.3212267"><ele>227.5</ele><time>2026-04-20T12:59:01.873Z</time></trkpt><trkpt lat="45.712165" lon="11.3214333"><ele>227.25</ele><time>2026-04-20T12:59:02.873Z</time></trkpt><trkpt lat="45.71216" lon="11.3216433"><ele>227.0</ele><time>2026-04-20T12:59:03.873Z</time></trkpt><trkpt lat="45.712155" lon="11.32184"><ele>227.0</ele><time>2026-04-20T12:59:04.873Z</time></trkpt><trkpt lat="45.71215" lon="11.3220367"><ele>227.0</ele><time>2026-04-20T12:59:05.873Z</time></trkpt><trkpt lat="45.7121667" lon="11.3222383"><ele>227.0</ele><time>2026-04-20T12:59:06.873Z</time></trkpt><trkpt lat="45.7121617" lon="11.3224167"><ele>227.0</ele><time>2026-04-20T12:59:07.873Z</time></trkpt><trkpt lat="45.71218" lon="11.3226267"><ele>227.0</ele><time>2026-04-20T12:59:08.874Z</time></trkpt><trkpt lat="45.7121933" lon="11.3228383"><ele>227.0</ele><time>2026-04-20T12:59:09.873Z</time></trkpt><trkpt lat="45.712205" lon="11.3230517"><ele>227.0</ele><time>2026-04-20T12:59:10.873Z</time></trkpt><trkpt lat="45.71222" lon="11.32327"><ele>226.75</ele><time>2026-04-20T12:59:11.873Z</time></trkpt><trkpt lat="45.712235" lon="11.3234783"><ele>226.5</ele><time>2026-04-20T12:59:12.873Z</time></trkpt><trkpt lat="45.7122433" lon="11.3236817"><ele>226.25</ele><time>2026-04-20T12:59:13.874Z</time></trkpt><trkpt lat="45.71225" lon="11.32387"><ele>226.0</ele><time>2026-04-20T12:59:14.874Z</time></trkpt><trkpt lat="45.7122567" lon="11.324065"><ele>226.0</ele><time>2026-04-20T12:59:15.873Z</time></trkpt><trkpt lat="45.7122633" lon="11.3242633"><ele>226.0</ele><time>2026-04-20T12:59:16.873Z</time></trkpt><trkpt lat="45.7122733" lon="11.324455"><ele>226.0</ele><time>2026-04-20T12:59:17.873Z</time></trkpt><trkpt lat="45.7122833" lon="11.324655"><ele>226.0</ele><time>2026-04-20T12:59:18.873Z</time></trkpt><trkpt lat="45.7122933" lon="11.3248633"><ele>225.75</ele><time>2026-04-20T12:59:19.873Z</time></trkpt><trkpt lat="45.7123083" lon="11.32506"><ele>225.5</ele><time>2026-04-20T12:59:20.873Z</time></trkpt><trkpt lat="45.7123133" lon="11.325235"><ele>225.25</ele><time>2026-04-20T12:59:21.874Z</time></trkpt><trkpt lat="45.712315" lon="11.3253967"><ele>225.0</ele><time>2026-04-20T12:59:22.873Z</time></trkpt><trkpt lat="45.7123233" lon="11.3255517"><ele>224.8</ele><time>2026-04-20T12:59:23.873Z</time></trkpt><trkpt lat="45.7123133" lon="11.325685"><ele>224.6</ele><time>2026-04-20T12:59:24.873Z</time></trkpt><trkpt lat="45.712285" lon="11.3258"><ele>224.39999999999998</ele><time>2026-04-20T12:59:25.873Z</time></trkpt><trkpt lat="45.7122317" lon="11.3258867"><ele>224.2</ele><time>2026-04-20T12:59:26.873Z</time></trkpt><trkpt lat="45.712165" lon="11.32594"><ele>224.0</ele><time>2026-04-20T12:59:27.873Z</time></trkpt><trkpt lat="45.7121033" lon="11.3260817"><ele>224.0</ele><time>2026-04-20T12:59:29.873Z</time></trkpt><trkpt lat="45.712125" lon="11.32619"><ele>223.99999999999997</ele><time>2026-04-20T12:59:30.873Z</time></trkpt><trkpt lat="45.7121767" lon="11.32632"><ele>223.99999999999997</ele><time>2026-04-20T12:59:31.873Z</time></trkpt><trkpt lat="45.7122267" lon="11.3264633"><ele>224.0</ele><time>2026-04-20T12:59:32.873Z</time></trkpt><trkpt lat="45.71227" lon="11.3265983"><ele>224.0</ele><time>2026-04-20T12:59:33.874Z</time></trkpt><trkpt lat="45.7123317" lon="11.3267217"><ele>224.0</ele><time>2026-04-20T12:59:34.873Z</time></trkpt><trkpt lat="45.7124017" lon="11.32681"><ele>224.0</ele><time>2026-04-20T12:59:35.873Z</time></trkpt><trkpt lat="45.7125017" lon="11.326875"><ele>224.0</ele><time>2026-04-20T12:59:36.873Z</time></trkpt><trkpt lat="45.7126283" lon="11.3269083"><ele>224.0</ele><time>2026-04-20T12:59:37.873Z</time></trkpt><trkpt lat="45.7127733" lon="11.326925"><ele>222.66666666666669</ele><time>2026-04-20T12:59:38.873Z</time></trkpt><trkpt lat="45.7129383" lon="11.32695"><ele>221.33333333333331</ele><time>2026-04-20T12:59:39.873Z</time></trkpt><trkpt lat="45.7131067" lon="11.3269883"><ele>220.0</ele><time>2026-04-20T12:59:40.873Z</time></trkpt><trkpt lat="45.7132617" lon="11.3270133"><ele>220.0</ele><time>2026-04-20T12:59:41.873Z</time></trkpt><trkpt lat="45.7134067" lon="11.3270433"><ele>220.0</ele><time>2026-04-20T12:59:42.873Z</time></trkpt><trkpt lat="45.7135483" lon="11.3270617"><ele>220.0</ele><time>2026-04-20T12:59:43.873Z</time></trkpt><trkpt lat="45.7136783" lon="11.3270867"><ele>220.0</ele><time>2026-04-20T12:59:44.873Z</time></trkpt><trkpt lat="45.7138" lon="11.3271133"><ele>220.25</ele><time>2026-04-20T12:59:45.873Z</time></trkpt><trkpt lat="45.7139183" lon="11.327145"><ele>220.5</ele><time>2026-04-20T12:59:46.873Z</time></trkpt><trkpt lat="45.7140417" lon="11.327205"><ele>220.75</ele><time>2026-04-20T12:59:47.873Z</time></trkpt><trkpt lat="45.7141367" lon="11.3272917"><ele>221.0</ele><time>2026-04-20T12:59:48.874Z</time></trkpt><trkpt lat="45.7142167" lon="11.327415"><ele>221.0</ele><time>2026-04-20T12:59:49.873Z</time></trkpt><trkpt lat="45.7142817" lon="11.3275783"><ele>221.0</ele><time>2026-04-20T12:59:50.873Z</time></trkpt><trkpt lat="45.71433" lon="11.327755"><ele>221.0</ele><time>2026-04-20T12:59:51.873Z</time></trkpt><trkpt lat="45.7143683" lon="11.3279333"><ele>221.0</ele><time>2026-04-20T12:59:52.873Z</time></trkpt><trkpt lat="45.71442" lon="11.32811"><ele>221.25</ele><time>2026-04-20T12:59:53.873Z</time></trkpt><trkpt lat="45.7144633" lon="11.32828"><ele>221.5</ele><time>2026-04-20T12:59:54.873Z</time></trkpt><trkpt lat="45.7145083" lon="11.3284517"><ele>221.75</ele><time>2026-04-20T12:59:55.873Z</time></trkpt><trkpt lat="45.7145583" lon="11.3286217"><ele>222.0</ele><time>2026-04-20T12:59:56.873Z</time></trkpt><trkpt lat="45.7146083" lon="11.3288"><ele>222.25</ele><time>2026-04-20T12:59:57.873Z</time></trkpt><trkpt lat="45.7146583" lon="11.3289717"><ele>222.5</ele><time>2026-04-20T12:59:58.874Z</time></trkpt><trkpt lat="45.71472" lon="11.3291383"><ele>222.75</ele><time>2026-04-20T12:59:59.873Z</time></trkpt><trkpt lat="45.7147717" lon="11.3293183"><ele>223.0</ele><time>2026-04-20T13:00:00.873Z</time></trkpt><trkpt lat="45.714825" lon="11.3294967"><ele>223.0</ele><time>2026-04-20T13:00:01.873Z</time></trkpt><trkpt lat="45.71487" lon="11.3296617"><ele>223.0</ele><time>2026-04-20T13:00:02.873Z</time></trkpt><trkpt lat="45.7149183" lon="11.32983"><ele>223.0</ele><time>2026-04-20T13:00:03.873Z</time></trkpt><trkpt lat="45.7149617" lon="11.3299867"><ele>223.0</ele><time>2026-04-20T13:00:04.873Z</time></trkpt><trkpt lat="45.7150117" lon="11.3301533"><ele>223.0</ele><time>2026-04-20T13:00:05.873Z</time></trkpt><trkpt lat="45.7150683" lon="11.33032"><ele>223.0</ele><time>2026-04-20T13:00:06.873Z</time></trkpt><trkpt lat="45.7151283" lon="11.33049"><ele>223.0</ele><time>2026-04-20T13:00:07.873Z</time></trkpt><trkpt lat="45.7151867" lon="11.3306583"><ele>223.0</ele><time>2026-04-20T13:00:08.873Z</time></trkpt><trkpt lat="45.715245" lon="11.3308283"><ele>224.2</ele><time>2026-04-20T13:00:09.873Z</time></trkpt><trkpt lat="45.7152917" lon="11.3309883"><ele>225.4</ele><time>2026-04-20T13:00:10.873Z</time></trkpt><trkpt lat="45.7153367" lon="11.33114"><ele>226.59999999999997</ele><time>2026-04-20T13:00:11.873Z</time></trkpt><trkpt lat="45.71538" lon="11.3312717"><ele>227.79999999999998</ele><time>2026-04-20T13:00:12.873Z</time></trkpt><trkpt lat="45.7154083" lon="11.3313933"><ele>229.0</ele><time>2026-04-20T13:00:13.873Z</time></trkpt><trkpt lat="45.7154133" lon="11.331515"><ele>229.25</ele><time>2026-04-20T13:00:14.873Z</time></trkpt><trkpt lat="45.7153883" lon="11.3316383"><ele>229.5</ele><time>2026-04-20T13:00:15.873Z</time></trkpt><trkpt lat="45.71533" lon="11.33178"><ele>229.75</ele><time>2026-04-20T13:00:16.873Z</time></trkpt><trkpt lat="45.7152717" lon="11.3319367"><ele>230.0</ele><time>2026-04-20T13:00:17.873Z</time></trkpt><trkpt lat="45.7152267" lon="11.3321117"><ele>227.5</ele><time>2026-04-20T13:00:18.873Z</time></trkpt><trkpt lat="45.7151983" lon="11.3322933"><ele>225.0</ele><time>2026-04-20T13:00:19.873Z</time></trkpt><trkpt lat="45.7151767" lon="11.33247"><ele>222.5</ele><time>2026-04-20T13:00:20.873Z</time></trkpt><trkpt lat="45.7151517" lon="11.3326117"><ele>220.0</ele><time>2026-04-20T13:00:21.873Z</time></trkpt><trkpt lat="45.7151067" lon="11.3327483"><ele>220.0</ele><time>2026-04-20T13:00:22.873Z</time></trkpt><trkpt lat="45.7150333" lon="11.3328517"><ele>220.0</ele><time>2026-04-20T13:00:23.873Z</time></trkpt><trkpt lat="45.7149467" lon="11.332925"><ele>220.0</ele><time>2026-04-20T13:00:24.873Z</time></trkpt><trkpt lat="45.7148817" lon="11.3330167"><ele>220.0</ele><time>2026-04-20T13:00:25.873Z</time></trkpt><trkpt lat="45.714855" lon="11.333125"><ele>220.0</ele><time>2026-04-20T13:00:26.873Z</time></trkpt><trkpt lat="45.7148733" lon="11.3332433"><ele>219.5</ele><time>2026-04-20T13:00:27.874Z</time></trkpt><trkpt lat="45.71493" lon="11.3333583"><ele>219.0</ele><time>2026-04-20T13:00:28.873Z</time></trkpt><trkpt lat="45.7150083" lon="11.3334917"><ele>218.5</ele><time>2026-04-20T13:00:29.873Z</time></trkpt><trkpt lat="45.7150633" lon="11.333665"><ele>218.0</ele><time>2026-04-20T13:00:30.873Z</time></trkpt><trkpt lat="45.7150983" lon="11.3338333"><ele>218.25</ele><time>2026-04-20T13:00:31.873Z</time></trkpt><trkpt lat="45.7151183" lon="11.3339983"><ele>218.5</ele><time>2026-04-20T13:00:32.873Z</time></trkpt><trkpt lat="45.715135" lon="11.3341667"><ele>218.75</ele><time>2026-04-20T13:00:33.873Z</time></trkpt><trkpt lat="45.7151467" lon="11.3343417"><ele>219.0</ele><time>2026-04-20T13:00:34.873Z</time></trkpt><trkpt lat="45.715155" lon="11.3345217"><ele>219.0</ele><time>2026-04-20T13:00:35.873Z</time></trkpt><trkpt lat="45.7151617" lon="11.3346917"><ele>219.0</ele><time>2026-04-20T13:00:36.873Z</time></trkpt><trkpt lat="45.71517" lon="11.3348233"><ele>219.0</ele><time>2026-04-20T13:00:37.873Z</time></trkpt><trkpt lat="45.7151733" lon="11.3349283"><ele>219.0</ele><time>2026-04-20T13:00:38.873Z</time></trkpt><trkpt lat="45.7151833" lon="11.3350267"><ele>219.0</ele><time>2026-04-20T13:00:39.873Z</time></trkpt><trkpt lat="45.7151967" lon="11.3351283"><ele>219.0</ele><time>2026-04-20T13:00:41.873Z</time></trkpt><trkpt lat="45.7151983" lon="11.3352333"><ele>219.5</ele><time>2026-04-20T13:01:17.873Z</time></trkpt><trkpt lat="45.7152" lon="11.3354283"><ele>220.0</ele><time>2026-04-20T13:01:19.873Z</time></trkpt><trkpt lat="45.7152067" lon="11.335575"><ele>220.5</ele><time>2026-04-20T13:01:20.873Z</time></trkpt><trkpt lat="45.7152017" lon="11.3357333"><ele>221.0</ele><time>2026-04-20T13:01:21.873Z</time></trkpt><trkpt lat="45.715205" lon="11.335905"><ele>221.0</ele><time>2026-04-20T13:01:22.873Z</time></trkpt><trkpt lat="45.7152133" lon="11.3360967"><ele>221.0</ele><time>2026-04-20T13:01:23.873Z</time></trkpt><trkpt lat="45.7152233" lon="11.3363"><ele>221.0</ele><time>2026-04-20T13:01:24.873Z</time></trkpt><trkpt lat="45.71524" lon="11.3365183"><ele>221.0</ele><time>2026-04-20T13:01:25.873Z</time></trkpt><trkpt lat="45.71525" lon="11.3367417"><ele>221.25</ele><time>2026-04-20T13:01:26.873Z</time></trkpt><trkpt lat="45.7152683" lon="11.3369633"><ele>221.5</ele><time>2026-04-20T13:01:27.873Z</time></trkpt><trkpt lat="45.71529" lon="11.33718"><ele>221.75</ele><time>2026-04-20T13:01:28.873Z</time></trkpt><trkpt lat="45.7153033" lon="11.33738"><ele>222.0</ele><time>2026-04-20T13:01:29.873Z</time></trkpt><trkpt lat="45.7153133" lon="11.3375833"><ele>221.5</ele><time>2026-04-20T13:01:30.873Z</time></trkpt><trkpt lat="45.715325" lon="11.3377783"><ele>221.0</ele><time>2026-04-20T13:01:31.873Z</time></trkpt><trkpt lat="45.7153417" lon="11.337995"><ele>220.5</ele><time>2026-04-20T13:01:32.873Z</time></trkpt><trkpt lat="45.7153617" lon="11.3382033"><ele>220.0</ele><time>2026-04-20T13:01:33.873Z</time></trkpt><trkpt lat="45.71537" lon="11.338425"><ele>219.75</ele><time>2026-04-20T13:01:34.873Z</time></trkpt><trkpt lat="45.715385" lon="11.338635"><ele>219.5</ele><time>2026-04-20T13:01:35.874Z</time></trkpt><trkpt lat="45.7154017" lon="11.3388483"><ele>219.25</ele><time>2026-04-20T13:01:36.873Z</time></trkpt><trkpt lat="45.7154117" lon="11.33906"><ele>219.0</ele><time>2026-04-20T13:01:37.873Z</time></trkpt><trkpt lat="45.715435" lon="11.33929"><ele>218.0</ele><time>2026-04-20T13:01:38.873Z</time></trkpt><trkpt lat="45.71545" lon="11.3395217"><ele>217.0</ele><time>2026-04-20T13:01:39.873Z</time></trkpt><trkpt lat="45.715465" lon="11.3397467"><ele>216.0</ele><time>2026-04-20T13:01:40.873Z</time></trkpt><trkpt lat="45.7154783" lon="11.3399733"><ele>215.5</ele><time>2026-04-20T13:01:41.873Z</time></trkpt><trkpt lat="45.7155017" lon="11.3401883"><ele>215.0</ele><time>2026-04-20T13:01:42.873Z</time></trkpt><trkpt lat="45.7155233" lon="11.340385"><ele>214.5</ele><time>2026-04-20T13:01:43.873Z</time></trkpt><trkpt lat="45.7155433" lon="11.3405717"><ele>214.0</ele><time>2026-04-20T13:01:44.873Z</time></trkpt><trkpt lat="45.7155583" lon="11.3407667"><ele>214.0</ele><time>2026-04-20T13:01:45.873Z</time></trkpt><trkpt lat="45.7155783" lon="11.3409583"><ele>214.0</ele><time>2026-04-20T13:01:46.873Z</time></trkpt><trkpt lat="45.7156" lon="11.341145"><ele>214.0</ele><time>2026-04-20T13:01:47.873Z</time></trkpt><trkpt lat="45.7156117" lon="11.3413283"><ele>214.0</ele><time>2026-04-20T13:01:48.873Z</time></trkpt><trkpt lat="45.7156217" lon="11.3415083"><ele>213.39999999999998</ele><time>2026-04-20T13:01:49.873Z</time></trkpt><trkpt lat="45.7156333" lon="11.3416783"><ele>212.79999999999998</ele><time>2026-04-20T13:01:50.873Z</time></trkpt><trkpt lat="45.71564" lon="11.3418267"><ele>212.2</ele><time>2026-04-20T13:01:51.873Z</time></trkpt><trkpt lat="45.7156333" lon="11.3419517"><ele>211.60000000000002</ele><time>2026-04-20T13:01:52.873Z</time></trkpt><trkpt lat="45.7156267" lon="11.3421217"><ele>211.0</ele><time>2026-04-20T13:01:54.873Z</time></trkpt><trkpt lat="45.7156417" lon="11.342245"><ele>211.0</ele><time>2026-04-20T13:02:06.873Z</time></trkpt><trkpt lat="45.715645" lon="11.3425367"><ele>211.0</ele><time>2026-04-20T13:02:10.873Z</time></trkpt><trkpt lat="45.715635" lon="11.3426883"><ele>211.0</ele><time>2026-04-20T13:06:07.872Z</time></trkpt><trkpt lat="45.7157267" lon="11.34261"><ele>211.0</ele><time>2026-04-20T13:06:10.872Z</time></trkpt><trkpt lat="45.7157567" lon="11.34234"><ele>211.0</ele><time>2026-04-20T13:06:13.872Z</time></trkpt><trkpt lat="45.7157517" lon="11.3422333"><ele>211.0</ele><time>2026-04-20T13:06:14.872Z</time></trkpt><trkpt lat="45.7157467" lon="11.3420083"><ele>211.0</ele><time>2026-04-20T13:06:17.872Z</time></trkpt><trkpt lat="45.7157683" lon="11.3418267"><ele>211.0</ele><time>2026-04-20T13:06:21.871Z</time></trkpt><trkpt lat="45.7158333" lon="11.341555"><ele>213.0</ele><time>2026-04-20T13:12:18.869Z</time></trkpt><trkpt lat="45.7160883" lon="11.341435"><ele>215.0</ele><time>2026-04-20T13:12:22.869Z</time></trkpt><trkpt lat="45.7165233" lon="11.3413783"><ele>215.66666666666669</ele><time>2026-04-20T13:12:26.869Z</time></trkpt><trkpt lat="45.7168217" lon="11.3413167"><ele>216.33333333333331</ele><time>2026-04-20T13:12:29.869Z</time></trkpt><trkpt lat="45.7169117" lon="11.3412933"><ele>217.0</ele><time>2026-04-20T13:12:30.869Z</time></trkpt><trkpt lat="45.7171767" lon="11.3412317"><ele>218.5</ele><time>2026-04-20T13:12:33.869Z</time></trkpt><trkpt lat="45.7174217" lon="11.34141"><ele>220.0</ele><time>2026-04-20T13:12:37.869Z</time></trkpt><trkpt lat="45.7175633" lon="11.3418183"><ele>220.0</ele><time>2026-04-20T13:12:40.869Z</time></trkpt><trkpt lat="45.7176283" lon="11.3419933"><ele>220.0</ele><time>2026-04-20T13:12:41.869Z</time></trkpt><trkpt lat="45.7177983" lon="11.34241"><ele>223.5</ele><time>2026-04-20T13:12:44.869Z</time></trkpt><trkpt lat="45.7178683" lon="11.3424967"><ele>227.0</ele><time>2026-04-20T13:12:45.869Z</time></trkpt><trkpt lat="45.7180933" lon="11.3424183"><ele>230.5</ele><time>2026-04-20T13:12:48.869Z</time></trkpt><trkpt lat="45.7181467" lon="11.3423"><ele>234.0</ele><time>2026-04-20T13:12:49.869Z</time></trkpt><trkpt lat="45.7183017" lon="11.341895"><ele>234.33333333333331</ele><time>2026-04-20T13:12:52.87Z</time></trkpt><trkpt lat="45.718505" lon="11.3415283"><ele>234.66666666666666</ele><time>2026-04-20T13:12:55.869Z</time></trkpt><trkpt lat="45.7185867" lon="11.341455"><ele>235.0</ele><time>2026-04-20T13:12:56.869Z</time></trkpt><trkpt lat="45.71881" lon="11.3413467"><ele>236.5</ele><time>2026-04-20T13:12:58.869Z</time></trkpt><trkpt lat="45.7189283" lon="11.3413017"><ele>238.0</ele><time>2026-04-20T13:12:59.869Z</time></trkpt><trkpt lat="45.719305" lon="11.3411217"><ele>241.0</ele><time>2026-04-20T13:13:02.869Z</time></trkpt><trkpt lat="45.7194383" lon="11.3410583"><ele>244.0</ele><time>2026-04-20T13:13:03.869Z</time></trkpt><trkpt lat="45.7197983" lon="11.3409633"><ele>244.0</ele><time>2026-04-20T13:13:06.869Z</time></trkpt><trkpt lat="45.7199533" lon="11.3409933"><ele>244.0</ele><time>2026-04-20T13:13:09.869Z</time></trkpt><trkpt lat="45.7198617" lon="11.3412333"><ele>244.0</ele><time>2026-04-20T13:13:13.869Z</time></trkpt><trkpt lat="45.7197717" lon="11.3415917"><ele>244.0</ele><time>2026-04-20T13:13:16.869Z</time></trkpt><trkpt lat="45.719785" lon="11.341765"><ele>244.0</ele><time>2026-04-20T13:13:17.869Z</time></trkpt><trkpt lat="45.7197783" lon="11.3423417"><ele>242.0</ele><time>2026-04-20T13:13:20.869Z</time></trkpt><trkpt lat="45.7196817" lon="11.3428317"><ele>240.0</ele><time>2026-04-20T13:13:23.869Z</time></trkpt><trkpt lat="45.7196317" lon="11.3429667"><ele>242.5</ele><time>2026-04-20T13:13:24.869Z</time></trkpt><trkpt lat="45.7194667" lon="11.3432333"><ele>245.0</ele><time>2026-04-20T13:13:27.869Z</time></trkpt><trkpt lat="45.7195683" lon="11.343575"><ele>245.0</ele><time>2026-04-20T13:13:31.869Z</time></trkpt><trkpt lat="45.7198067" lon="11.3437067"><ele>245.0</ele><time>2026-04-20T13:13:34.869Z</time></trkpt><trkpt lat="45.7200633" lon="11.34374"><ele>245.0</ele><time>2026-04-20T13:13:37.869Z</time></trkpt><trkpt lat="45.7201033" lon="11.3438133"><ele>245.0</ele><time>2026-04-20T13:13:38.869Z</time></trkpt><trkpt lat="45.720075" lon="11.3440883"><ele>245.0</ele><time>2026-04-20T13:13:41.87Z</time></trkpt><trkpt lat="45.7200117" lon="11.3441817"><ele>245.0</ele><time>2026-04-20T13:13:42.869Z</time></trkpt><trkpt lat="45.71988" lon="11.3443833"><ele>242.0</ele><time>2026-04-20T13:13:44.869Z</time></trkpt><trkpt lat="45.719685" lon="11.3448433"><ele>239.0</ele><time>2026-04-20T13:13:47.869Z</time></trkpt><trkpt lat="45.71962" lon="11.345035"><ele>234.0</ele><time>2026-04-20T13:13:48.869Z</time></trkpt><trkpt lat="45.71948" lon="11.3456683"><ele>234.0</ele><time>2026-04-20T13:13:51.869Z</time></trkpt><trkpt lat="45.7194483" lon="11.345895"><ele>234.0</ele><time>2026-04-20T13:13:52.869Z</time></trkpt><trkpt lat="45.7193383" lon="11.3465267"><ele>234.0</ele><time>2026-04-20T13:13:55.869Z</time></trkpt><trkpt lat="45.7192733" lon="11.3467017"><ele>234.0</ele><time>2026-04-20T13:13:56.869Z</time></trkpt><trkpt lat="45.7190983" lon="11.3472233"><ele>235.0</ele><time>2026-04-20T13:13:59.869Z</time></trkpt><trkpt lat="45.7189117" lon="11.3480117"><ele>235.5</ele><time>2026-04-20T13:14:03.869Z</time></trkpt><trkpt lat="45.7187433" lon="11.348495"><ele>236.0</ele><time>2026-04-20T13:14:06.869Z</time></trkpt><trkpt lat="45.71833" lon="11.34901"><ele>233.0</ele><time>2026-04-20T13:14:10.869Z</time></trkpt><trkpt lat="45.7180217" lon="11.349415"><ele>230.0</ele><time>2026-04-20T13:14:13.869Z</time></trkpt><trkpt lat="45.7179183" lon="11.3495633"><ele>231.0</ele><time>2026-04-20T13:14:14.869Z</time></trkpt><trkpt lat="45.7176717" lon="11.3500867"><ele>232.0</ele><time>2026-04-20T13:14:17.869Z</time></trkpt><trkpt lat="45.717425" lon="11.3508067"><ele>232.0</ele><time>2026-04-20T13:14:21.869Z</time></trkpt><trkpt lat="45.7172083" lon="11.35124"><ele>232.0</ele><time>2026-04-20T13:14:24.869Z</time></trkpt><trkpt lat="45.71713" lon="11.351385"><ele>232.5</ele><time>2026-04-20T13:14:25.87Z</time></trkpt><trkpt lat="45.716985" lon="11.35184"><ele>233.0</ele><time>2026-04-20T13:14:28.869Z</time></trkpt><trkpt lat="45.7169817" lon="11.3520117"><ele>232.33333333333334</ele><time>2026-04-20T13:14:29.869Z</time></trkpt><trkpt lat="45.7170483" lon="11.3524967"><ele>231.66666666666669</ele><time>2026-04-20T13:14:32.869Z</time></trkpt><trkpt lat="45.71705" lon="11.352635"><ele>231.0</ele><time>2026-04-20T13:14:33.869Z</time></trkpt><trkpt lat="45.71703" lon="11.3527617"><ele>231.0</ele><time>2026-04-20T13:14:34.869Z</time></trkpt><trkpt lat="45.7170017" lon="11.35287"><ele>231.00000000000003</ele><time>2026-04-20T13:14:35.869Z</time></trkpt><trkpt lat="45.7169167" lon="11.35302"><ele>231.00000000000003</ele><time>2026-04-20T13:14:38.869Z</time></trkpt><trkpt lat="45.71693" lon="11.353145"><ele>231.0</ele><time>2026-04-20T13:14:43.869Z</time></trkpt><trkpt lat="45.7170333" lon="11.353225"><ele>231.0</ele><time>2026-04-20T13:14:46.869Z</time></trkpt><trkpt lat="45.717095" lon="11.3532633"><ele>229.66666666666669</ele><time>2026-04-20T13:14:47.869Z</time></trkpt><trkpt lat="45.717355" lon="11.3533517"><ele>228.33333333333334</ele><time>2026-04-20T13:14:50.87Z</time></trkpt><trkpt lat="45.717465" lon="11.35334"><ele>227.0</ele><time>2026-04-20T13:14:51.869Z</time></trkpt><trkpt lat="45.71779" lon="11.3532467"><ele>227.0</ele><time>2026-04-20T13:14:54.868Z</time></trkpt><trkpt lat="45.7180217" lon="11.3531583"><ele>227.0</ele><time>2026-04-20T13:14:58.868Z</time></trkpt><trkpt lat="45.7181583" lon="11.3530667"><ele>227.0</ele><time>2026-04-20T13:15:01.868Z</time></trkpt><trkpt lat="45.7182467" lon="11.3530517"><ele>223.0</ele><time>2026-04-20T13:15:02.868Z</time></trkpt><trkpt lat="45.7185833" lon="11.3530267"><ele>219.0</ele><time>2026-04-20T13:15:05.868Z</time></trkpt><trkpt lat="45.71891" lon="11.3530883"><ele>218.33333333333331</ele><time>2026-04-20T13:15:08.868Z</time></trkpt><trkpt lat="45.71901" lon="11.3531183"><ele>217.66666666666666</ele><time>2026-04-20T13:15:09.869Z</time></trkpt><trkpt lat="45.719245" lon="11.3533017"><ele>217.0</ele><time>2026-04-20T13:15:13.869Z</time></trkpt><trkpt lat="45.7193317" lon="11.35346"><ele>214.0</ele><time>2026-04-20T13:15:16.868Z</time></trkpt><trkpt lat="45.7194967" lon="11.3538183"><ele>211.0</ele><time>2026-04-20T13:15:38.868Z</time></trkpt><trkpt lat="45.7198883" lon="11.354"><ele>211.0</ele><time>2026-04-20T13:15:41.868Z</time></trkpt><trkpt lat="45.7205217" lon="11.3544333"><ele>209.0</ele><time>2026-04-20T13:15:45.868Z</time></trkpt><trkpt lat="45.7211167" lon="11.3545167"><ele>209.0</ele><time>2026-04-20T13:15:48.868Z</time></trkpt><trkpt lat="45.721315" lon="11.3545267"><ele>209.0</ele><time>2026-04-20T13:15:49.868Z</time></trkpt><trkpt lat="45.7214833" lon="11.3545317"><ele>209.0</ele><time>2026-04-20T13:15:50.868Z</time></trkpt><trkpt lat="45.7218967" lon="11.3545567"><ele>209.66666666666669</ele><time>2026-04-20T13:15:53.868Z</time></trkpt><trkpt lat="45.722015" lon="11.35457"><ele>210.33333333333331</ele><time>2026-04-20T13:15:54.868Z</time></trkpt><trkpt lat="45.72232" lon="11.354595"><ele>211.0</ele><time>2026-04-20T13:15:57.868Z</time></trkpt><trkpt lat="45.722505" lon="11.354595"><ele>211.0</ele><time>2026-04-20T13:15:59.869Z</time></trkpt><trkpt lat="45.7226033" lon="11.3545983"><ele>211.0</ele><time>2026-04-20T13:16:00.868Z</time></trkpt><trkpt lat="45.7229267" lon="11.3546183"><ele>211.0</ele><time>2026-04-20T13:16:03.868Z</time></trkpt><trkpt lat="45.7230333" lon="11.3546233"><ele>212.0</ele><time>2026-04-20T13:16:04.868Z</time></trkpt><trkpt lat="45.7231333" lon="11.3546317"><ele>213.0</ele><time>2026-04-20T13:16:05.868Z</time></trkpt><trkpt lat="45.7234617" lon="11.3546583"><ele>214.0</ele><time>2026-04-20T13:16:08.868Z</time></trkpt><trkpt lat="45.72357" lon="11.354665"><ele>212.0</ele><time>2026-04-20T13:16:09.868Z</time></trkpt><trkpt lat="45.7238317" lon="11.3547083"><ele>210.0</ele><time>2026-04-20T13:16:12.868Z</time></trkpt><trkpt lat="45.724085" lon="11.35505"><ele>210.0</ele><time>2026-04-20T13:16:16.868Z</time></trkpt><trkpt lat="45.7241533" lon="11.3551767"><ele>210.0</ele><time>2026-04-20T13:16:17.868Z</time></trkpt><trkpt lat="45.724225" lon="11.3553067"><ele>210.0</ele><time>2026-04-20T13:16:18.868Z</time></trkpt><trkpt lat="45.72444" lon="11.3556433"><ele>209.33333333333331</ele><time>2026-04-20T13:16:21.868Z</time></trkpt><trkpt lat="45.7245067" lon="11.3557367"><ele>208.66666666666666</ele><time>2026-04-20T13:16:22.868Z</time></trkpt><trkpt lat="45.7247017" lon="11.3559783"><ele>208.0</ele><time>2026-04-20T13:16:25.868Z</time></trkpt><trkpt lat="45.7248917" lon="11.3562233"><ele>208.0</ele><time>2026-04-20T13:16:28.868Z</time></trkpt><trkpt lat="45.7249617" lon="11.3562933"><ele>208.0</ele><time>2026-04-20T13:16:29.868Z</time></trkpt><trkpt lat="45.7251417" lon="11.3565367"><ele>208.0</ele><time>2026-04-20T13:16:32.868Z</time></trkpt><trkpt lat="45.7253067" lon="11.35684"><ele>209.5</ele><time>2026-04-20T13:16:35.868Z</time></trkpt><trkpt lat="45.7253367" lon="11.356935"><ele>211.0</ele><time>2026-04-20T13:16:36.868Z</time></trkpt><trkpt lat="45.72536" lon="11.3572217"><ele>212.5</ele><time>2026-04-20T13:16:39.868Z</time></trkpt><trkpt lat="45.7254383" lon="11.357445"><ele>214.0</ele><time>2026-04-20T13:16:42.868Z</time></trkpt><trkpt lat="45.7255167" lon="11.3574567"><ele>214.0</ele><time>2026-04-20T13:16:43.868Z</time></trkpt><trkpt lat="45.72574" lon="11.357575"><ele>214.0</ele><time>2026-04-20T13:16:46.869Z</time></trkpt><trkpt lat="45.72581" lon="11.357715"><ele>214.0</ele><time>2026-04-20T13:16:47.868Z</time></trkpt><trkpt lat="45.7260633" lon="11.35819"><ele>214.0</ele><time>2026-04-20T13:16:50.869Z</time></trkpt><trkpt lat="45.72638" lon="11.358755"><ele>212.0</ele><time>2026-04-20T13:16:53.868Z</time></trkpt><trkpt lat="45.7264867" lon="11.3589567"><ele>210.0</ele><time>2026-04-20T13:16:54.868Z</time></trkpt><trkpt lat="45.7268267" lon="11.359565"><ele>208.0</ele><time>2026-04-20T13:16:57.868Z</time></trkpt><trkpt lat="45.7272183" lon="11.36025"><ele>206.0</ele><time>2026-04-20T13:17:01.868Z</time></trkpt><trkpt lat="45.7273333" lon="11.3607983"><ele>204.0</ele><time>2026-04-20T13:17:04.868Z</time></trkpt><trkpt lat="45.7273233" lon="11.361005"><ele>204.5</ele><time>2026-04-20T13:17:05.868Z</time></trkpt><trkpt lat="45.7271417" lon="11.3615883"><ele>205.0</ele><time>2026-04-20T13:17:08.869Z</time></trkpt><trkpt lat="45.72706" lon="11.3617733"><ele>205.0</ele><time>2026-04-20T13:17:09.868Z</time></trkpt><trkpt lat="45.72697" lon="11.3619667"><ele>205.0</ele><time>2026-04-20T13:17:10.868Z</time></trkpt><trkpt lat="45.7267233" lon="11.36259"><ele>203.0</ele><time>2026-04-20T13:17:13.868Z</time></trkpt><trkpt lat="45.7266433" lon="11.3627917"><ele>201.0</ele><time>2026-04-20T13:17:14.868Z</time></trkpt><trkpt lat="45.7264367" lon="11.363385"><ele>201.0</ele><time>2026-04-20T13:17:17.868Z</time></trkpt><trkpt lat="45.726365" lon="11.3635833"><ele>201.0</ele><time>2026-04-20T13:17:18.869Z</time></trkpt><trkpt lat="45.72618" lon="11.3641067"><ele>200.66666666666669</ele><time>2026-04-20T13:17:21.868Z</time></trkpt><trkpt lat="45.7261117" lon="11.364245"><ele>200.33333333333334</ele><time>2026-04-20T13:17:22.868Z</time></trkpt><trkpt lat="45.7260383" lon="11.36438"><ele>200.0</ele><time>2026-04-20T13:17:23.868Z</time></trkpt><trkpt lat="45.725875" lon="11.3649267"><ele>200.0</ele><time>2026-04-20T13:17:27.868Z</time></trkpt><trkpt lat="45.72599" lon="11.3651467"><ele>200.0</ele><time>2026-04-20T13:17:31.867Z</time></trkpt><trkpt lat="45.7261567" lon="11.3654417"><ele>200.66666666666669</ele><time>2026-04-20T13:17:35.867Z</time></trkpt><trkpt lat="45.7261917" lon="11.3655933"><ele>201.33333333333331</ele><time>2026-04-20T13:17:36.867Z</time></trkpt><trkpt lat="45.7262317" lon="11.3657383"><ele>202.0</ele><time>2026-04-20T13:17:37.867Z</time></trkpt><trkpt lat="45.726355" lon="11.3661583"><ele>201.75</ele><time>2026-04-20T13:17:40.867Z</time></trkpt><trkpt lat="45.7264417" lon="11.3664683"><ele>201.5</ele><time>2026-04-20T13:17:44.867Z</time></trkpt><trkpt lat="45.7264917" lon="11.36655"><ele>201.25</ele><time>2026-04-20T13:20:01.867Z</time></trkpt><trkpt lat="45.7265283" lon="11.3664633"><ele>201.0</ele><time>2026-04-20T13:20:05.867Z</time></trkpt><trkpt lat="45.7264583" lon="11.3664083"><ele>201.0</ele><time>2026-04-20T13:20:08.868Z</time></trkpt><trkpt lat="45.7264217" lon="11.366295"><ele>201.0</ele><time>2026-04-20T13:20:12.866Z</time></trkpt><trkpt lat="45.7264533" lon="11.3664167"><ele>201.0</ele><time>2026-04-20T13:20:16.866Z</time></trkpt><trkpt lat="45.72647" lon="11.3665083"><ele>201.0</ele><time>2026-04-20T13:20:19.866Z</time></trkpt><trkpt lat="45.7262867" lon="11.3665867"><ele>201.0</ele><time>2026-04-20T13:22:07.866Z</time></trkpt><trkpt lat="45.7261817" lon="11.3666433"><ele>201.0</ele><time>2026-04-20T13:22:09.866Z</time></trkpt></trkseg></trk></gpx>